Time,TemperatureF,DewpointF,PressureIn,WindDirection,WindDirectionDegrees,WindSpeedMPH,WindSpeedGustMPH,Humidity,HourlyPrecipIn,Conditions,Clouds,dailyrainin,SoftwareType,DateUTC
2013-02-17 00:01:00,16.2,3.1,29.84,NE,45,3.6,6.3,56,0.00,,,0.00,WUHU21623XXSP,2013-02-17 05:01:00,
2013-02-17 00:03:00,16.0,2.9,29.84,NNE,22,1.6,3.6,56,0.00,,,0.00,WUHU21623XXSP,2013-02-17 05:03:00,
2013-02-17 00:06:00,16.0,3.3,29.84,NE,45,4.0,4.0,57,0.00,,,0.00,WUHU21623XXSP,2013-02-17 05:06:00,
2013-02-17 00:08:00,16.0,3.3,29.84,North,0,5.1,5.1,57,0.00,,,0.00,WUHU21623XXSP,2013-02-17 05:08:00,
2013-02-17 00:10:00,15.8,3.1,29.84,NNE,22,1.8,5.1,57,0.00,,,0.00,WUHU21623XXSP,2013-02-17 05:10:00,
2013-02-17 00:12:00,15.8,3.1,29.83,NE,45,2.5,5.1,57,0.00,,,0.00,WUHU21623XXSP,2013-02-17 05:12:00,
2013-02-17 00:14:00,15.6,3.0,29.84,NE,45,6.9,6.9,57,0.00,,,0.00,WUHU21623XXSP,2013-02-17 05:14:00,
2013-02-17 00:16:00,15.6,3.0,29.83,NNE,22,4.0,6.9,57,0.00,,,0.00,WUHU21623XXSP,2013-02-17 05:16:00,
2013-02-17 00:18:00,15.6,3.0,29.83,North,0,6.3,6.9,57,0.00,,,0.00,WUHU21623XXSP,2013-02-17 05:18:00,
2013-02-17 00:21:00,15.6,3.0,29.83,NE,45,0.0,6.9,57,0.00,,,0.00,WUHU21623XXSP,2013-02-17 05:21:00,
2013-02-17 00:23:00,15.6,3.0,29.83,NE,45,6.7,6.9,57,0.00,,,0.00,WUHU21623XXSP,2013-02-17 05:23:00,
2013-02-17 00:25:00,15.6,3.0,29.83,NNE,22,4.9,6.7,57,0.00,,,0.00,WUHU21623XXSP,2013-02-17 05:25:00,
2013-02-17 00:27:00,15.6,3.0,29.83,NNE,22,4.9,6.7,57,0.00,,,0.00,WUHU21623XXSP,2013-02-17 05:27:00,
2013-02-17 00:30:00,15.6,3.0,29.83,NE,45,0.0,6.7,57,0.00,,,0.00,WUHU21623XXSP,2013-02-17 05:30:00,
2013-02-17 00:31:00,15.6,3.0,29.83,NNE,22,1.6,6.7,57,0.00,,,0.00,WUHU21623XXSP,2013-02-17 05:31:00,
2013-02-17 00:33:00,15.6,3.0,29.83,ENE,67,5.4,5.4,57,0.00,,,0.00,WUHU21623XXSP,2013-02-17 05:33:00,
2013-02-17 00:36:00,15.4,2.8,29.82,NE,45,3.1,5.4,57,0.00,,,0.00,WUHU21623XXSP,2013-02-17 05:36:00,
2013-02-17 00:38:00,15.6,3.0,29.82,NNE,22,4.9,5.4,57,0.00,,,0.00,WUHU21623XXSP,2013-02-17 05:38:00,
2013-02-17 00:40:00,15.4,2.8,29.82,NNE,22,0.0,5.4,57,0.00,,,0.00,WUHU21623XXSP,2013-02-17 05:40:00,
2013-02-17 00:42:00,15.4,2.8,29.82,East,90,0.0,5.4,57,0.00,,,0.00,WUHU21623XXSP,2013-02-17 05:42:00,
2013-02-17 00:44:00,15.4,2.8,29.82,North,0,4.0,4.9,57,0.00,,,0.00,WUHU21623XXSP,2013-02-17 05:44:00,
2013-02-17 00:46:00,15.3,2.6,29.82,North,0,6.3,6.3,57,0.00,,,0.00,WUHU21623XXSP,2013-02-17 05:46:00,
2013-02-17 00:48:00,15.1,2.5,29.82,NNE,22,2.7,6.3,57,0.00,,,0.00,WUHU21623XXSP,2013-02-17 05:48:00,
2013-02-17 00:50:00,15.3,2.6,29.82,NNE,22,3.6,6.3,57,0.00,,,0.00,WUHU21623XXSP,2013-02-17 05:50:00,
2013-02-17 00:53:00,15.3,2.6,29.82,NNE,22,3.6,6.3,57,0.00,,,0.00,WUHU21623XXSP,2013-02-17 05:53:00,
2013-02-17 00:55:00,15.1,2.5,29.82,NNE,22,0.0,6.3,57,0.00,,,0.00,WUHU21623XXSP,2013-02-17 05:55:00,
2013-02-17 00:57:00,14.9,2.3,29.82,NNE,22,3.4,3.6,57,0.00,,,0.00,WUHU21623XXSP,2013-02-17 05:57:00,
2013-02-17 00:59:00,14.7,2.1,29.82,NNE,22,0.9,3.6,57,0.00,,,0.00,WUHU21623XXSP,2013-02-17 05:59:00,
2013-02-17 01:01:00,14.7,2.1,29.82,NNE,22,3.1,3.6,57,0.00,,,0.00,WUHU21623XXSP,2013-02-17 06:01:00,
2013-02-17 01:03:00,14.7,2.1,29.82,NNE,22,0.0,3.4,57,0.00,,,0.00,WUHU21623XXSP,2013-02-17 06:03:00,
2013-02-17 01:06:00,14.7,2.1,29.82,NE,45,1.1,3.4,57,0.00,,,0.00,WUHU21623XXSP,2013-02-17 06:06:00,
2013-02-17 01:08:00,14.7,2.1,29.82,NNE,22,3.4,3.4,57,0.00,,,0.00,WUHU21623XXSP,2013-02-17 06:08:00,
2013-02-17 01:10:00,14.5,2.0,29.82,NE,45,4.3,4.3,57,0.00,,,0.00,WUHU21623XXSP,2013-02-17 06:10:00,
2013-02-17 01:12:00,14.4,1.8,29.81,NE,45,1.1,4.3,57,0.00,,,0.00,WUHU21623XXSP,2013-02-17 06:12:00,
2013-02-17 01:14:00,14.4,2.2,29.81,NE,45,4.0,4.3,58,0.00,,,0.00,WUHU21623XXSP,2013-02-17 06:14:00,
2013-02-17 01:16:00,14.4,2.2,29.81,NNE,22,4.7,4.7,58,0.00,,,0.00,WUHU21623XXSP,2013-02-17 06:16:00,
2013-02-17 01:18:00,14.4,2.2,29.81,NNE,22,2.5,4.7,58,0.00,,,0.00,WUHU21623XXSP,2013-02-17 06:18:00,
2013-02-17 01:20:00,14.4,2.2,29.81,NNE,22,2.0,4.7,58,0.00,,,0.00,WUHU21623XXSP,2013-02-17 06:20:00,
2013-02-17 01:23:00,14.2,2.0,29.81,NE,45,4.5,4.7,58,0.00,,,0.00,WUHU21623XXSP,2013-02-17 06:23:00,
2013-02-17 01:25:00,14.2,2.0,29.81,NNE,22,2.0,4.7,58,0.00,,,0.00,WUHU21623XXSP,2013-02-17 06:25:00,
2013-02-17 01:27:00,14.2,2.0,29.81,NNE,22,2.0,4.5,58,0.00,,,0.00,WUHU21623XXSP,2013-02-17 06:27:00,
2013-02-17 01:30:00,14.2,2.0,29.81,NNE,22,4.3,4.5,58,0.00,,,0.00,WUHU21623XXSP,2013-02-17 06:30:00,
2013-02-17 01:31:00,14.2,2.0,29.81,ENE,67,0.0,4.5,58,0.00,,,0.00,WUHU21623XXSP,2013-02-17 06:31:00,
2013-02-17 01:33:00,14.2,2.0,29.81,NE,45,1.1,4.3,58,0.00,,,0.00,WUHU21623XXSP,2013-02-17 06:33:00,
2013-02-17 01:35:00,14.2,2.0,29.81,NNE,22,4.3,4.3,58,0.00,,,0.00,WUHU21623XXSP,2013-02-17 06:35:00,
2013-02-17 01:38:00,14.2,2.0,29.81,NNE,22,2.7,4.3,58,0.00,,,0.00,WUHU21623XXSP,2013-02-17 06:38:00,
2013-02-17 01:40:00,14.2,2.0,29.81,NE,45,0.4,4.3,58,0.00,,,0.00,WUHU21623XXSP,2013-02-17 06:40:00,
2013-02-17 01:42:00,14.2,2.0,29.80,NNE,22,4.3,4.3,58,0.00,,,0.00,WUHU21623XXSP,2013-02-17 06:42:00,
2013-02-17 01:44:00,14.2,2.0,29.81,North,0,6.3,6.3,58,0.00,,,0.00,WUHU21623XXSP,2013-02-17 06:44:00,
2013-02-17 01:46:00,14.2,2.0,29.80,NNE,22,4.7,6.3,58,0.00,,,0.00,WUHU21623XXSP,2013-02-17 06:46:00,
2013-02-17 01:48:00,14.4,2.2,29.80,NE,45,3.1,6.3,58,0.00,,,0.00,WUHU21623XXSP,2013-02-17 06:48:00,
2013-02-17 01:50:00,14.4,1.8,29.80,NNE,22,4.5,6.3,57,0.00,,,0.00,WUHU21623XXSP,2013-02-17 06:50:00,
2013-02-17 01:53:00,14.4,1.8,29.80,North,0,4.0,6.3,57,0.00,,,0.00,WUHU21623XXSP,2013-02-17 06:53:00,
2013-02-17 01:55:00,14.5,2.0,29.80,NNE,22,1.6,4.7,57,0.00,,,0.00,WUHU21623XXSP,2013-02-17 06:55:00,
2013-02-17 01:57:00,14.4,1.8,29.80,NNE,22,2.5,4.5,57,0.00,,,0.00,WUHU21623XXSP,2013-02-17 06:57:00,
2013-02-17 01:59:00,14.4,1.8,29.80,NNE,22,4.5,4.5,57,0.00,,,0.00,WUHU21623XXSP,2013-02-17 06:59:00,
2013-02-17 02:01:00,14.2,1.6,29.80,NE,45,5.4,5.4,57,0.00,,,0.00,WUHU21623XXSP,2013-02-17 07:01:00,
2013-02-17 02:03:00,14.2,1.6,29.80,NE,45,1.3,5.4,57,0.00,,,0.00,WUHU21623XXSP,2013-02-17 07:03:00,
2013-02-17 02:05:00,14.2,1.6,29.80,NNE,22,3.6,5.4,57,0.00,,,0.00,WUHU21623XXSP,2013-02-17 07:05:00,
2013-02-17 02:08:00,14.2,2.0,29.80,NE,45,2.5,5.4,58,0.00,,,0.00,WUHU21623XXSP,2013-02-17 07:08:00,
2013-02-17 02:10:00,14.0,1.9,29.80,NE,45,2.2,5.4,58,0.00,,,0.00,WUHU21623XXSP,2013-02-17 07:10:00,
2013-02-17 02:12:00,13.8,1.7,29.80,NE,45,2.9,3.6,58,0.00,,,0.00,WUHU21623XXSP,2013-02-17 07:12:00,
2013-02-17 02:14:00,13.8,1.7,29.80,NNE,22,3.6,3.6,58,0.00,,,0.00,WUHU21623XXSP,2013-02-17 07:14:00,
2013-02-17 02:16:00,13.8,1.7,29.80,NE,45,7.2,7.2,58,0.00,,,0.00,WUHU21623XXSP,2013-02-17 07:16:00,
2013-02-17 02:18:00,13.8,1.7,29.79,NNE,22,2.7,7.2,58,0.00,,,0.00,WUHU21623XXSP,2013-02-17 07:18:00,
2013-02-17 02:20:00,13.8,1.7,29.79,NNE,22,1.6,7.2,58,0.00,,,0.00,WUHU21623XXSP,2013-02-17 07:20:00,
2013-02-17 02:23:00,13.8,1.7,29.79,North,0,7.2,7.2,58,0.00,,,0.00,WUHU21623XXSP,2013-02-17 07:23:00,
2013-02-17 02:25:00,13.8,1.7,29.80,NE,45,3.4,7.2,58,0.00,,,0.00,WUHU21623XXSP,2013-02-17 07:25:00,
2013-02-17 02:27:00,13.8,1.7,29.80,NE,45,3.4,7.2,58,0.00,,,0.00,WUHU21623XXSP,2013-02-17 07:27:00,
2013-02-17 02:30:00,13.8,1.7,29.79,NNE,22,1.6,7.2,58,0.00,,,0.00,WUHU21623XXSP,2013-02-17 07:30:00,
2013-02-17 02:31:00,13.6,1.5,29.79,NNE,22,5.4,7.2,58,0.00,,,0.00,WUHU21623XXSP,2013-02-17 07:31:00,
2013-02-17 02:33:00,13.6,1.5,29.79,NNE,22,4.5,5.4,58,0.00,,,0.00,WUHU21623XXSP,2013-02-17 07:33:00,
2013-02-17 02:35:00,13.6,1.5,29.79,North,0,4.5,5.4,58,0.00,,,0.00,WUHU21623XXSP,2013-02-17 07:35:00,
2013-02-17 02:38:00,13.6,1.5,29.79,NNE,22,3.8,5.4,58,0.00,,,0.00,WUHU21623XXSP,2013-02-17 07:38:00,
2013-02-17 02:40:00,13.6,1.5,29.80,North,0,4.5,5.4,58,0.00,,,0.00,WUHU21623XXSP,2013-02-17 07:40:00,
2013-02-17 02:42:00,13.6,1.5,29.80,NNE,22,2.9,4.5,58,0.00,,,0.00,WUHU21623XXSP,2013-02-17 07:42:00,
2013-02-17 02:44:00,13.6,1.5,29.80,North,0,6.9,6.9,58,0.00,,,0.00,WUHU21623XXSP,2013-02-17 07:44:00,
2013-02-17 02:46:00,13.6,1.5,29.80,North,0,6.7,6.9,58,0.00,,,0.00,WUHU21623XXSP,2013-02-17 07:46:00,
2013-02-17 02:48:00,13.6,1.5,29.80,NNE,22,0.0,6.9,58,0.00,,,0.00,WUHU21623XXSP,2013-02-17 07:48:00,
2013-02-17 02:50:00,13.6,1.5,29.80,NE,45,2.9,6.9,58,0.00,,,0.00,WUHU21623XXSP,2013-02-17 07:50:00,
2013-02-17 02:52:00,13.6,1.1,29.80,NE,45,7.2,7.2,57,0.00,,,0.00,WUHU21623XXSP,2013-02-17 07:52:00,
2013-02-17 02:55:00,13.6,1.1,29.80,NE,45,3.8,7.2,57,0.00,,,0.00,WUHU21623XXSP,2013-02-17 07:55:00,
2013-02-17 02:57:00,13.6,1.1,29.80,NE,45,4.3,7.2,57,0.00,,,0.00,WUHU21623XXSP,2013-02-17 07:57:00,
2013-02-17 02:59:00,13.3,0.8,29.80,NE,45,0.9,7.2,57,0.00,,,0.00,WUHU21623XXSP,2013-02-17 07:59:00,
2013-02-17 03:01:00,13.3,1.1,29.80,NE,45,3.8,7.2,58,0.00,,,0.00,WUHU21623XXSP,2013-02-17 08:01:00,
2013-02-17 03:03:00,13.3,1.1,29.80,NNE,22,4.5,4.5,58,0.00,,,0.00,WUHU21623XXSP,2013-02-17 08:03:00,
2013-02-17 03:05:00,13.1,1.0,29.80,NNE,22,5.4,5.4,58,0.00,,,0.00,WUHU21623XXSP,2013-02-17 08:05:00,
2013-02-17 03:07:00,13.3,1.1,29.81,NNE,22,3.6,5.4,58,0.00,,,0.00,WUHU21623XXSP,2013-02-17 08:07:00,
2013-02-17 03:10:00,13.3,1.1,29.80,NNE,22,5.4,5.4,58,0.00,,,0.00,WUHU21623XXSP,2013-02-17 08:10:00,
2013-02-17 03:12:00,13.3,1.1,29.80,NNE,22,2.9,5.4,58,0.00,,,0.00,WUHU21623XXSP,2013-02-17 08:12:00,
2013-02-17 03:14:00,13.1,1.0,29.81,NE,45,4.0,5.4,58,0.00,,,0.00,WUHU21623XXSP,2013-02-17 08:14:00,
2013-02-17 03:16:00,13.1,1.0,29.81,NNE,22,3.6,5.4,58,0.00,,,0.00,WUHU21623XXSP,2013-02-17 08:16:00,
2013-02-17 03:18:00,12.9,0.8,29.81,NNE,22,3.4,5.4,58,0.00,,,0.00,WUHU21623XXSP,2013-02-17 08:18:00,
2013-02-17 03:20:00,12.9,0.8,29.81,NNE,22,3.4,4.0,58,0.00,,,0.00,WUHU21623XXSP,2013-02-17 08:20:00,
2013-02-17 03:22:00,12.7,0.6,29.81,NNE,22,0.9,4.0,58,0.00,,,0.00,WUHU21623XXSP,2013-02-17 08:22:00,
2013-02-17 03:25:00,12.7,0.6,29.81,NNE,22,0.0,3.6,58,0.00,,,0.00,WUHU21623XXSP,2013-02-17 08:25:00,
2013-02-17 03:27:00,12.7,0.6,29.81,NNE,22,0.0,3.4,58,0.00,,,0.00,WUHU21623XXSP,2013-02-17 08:27:00,
2013-02-17 03:30:00,12.4,0.6,29.81,North,0,0.0,3.4,59,0.00,,,0.00,WUHU21623XXSP,2013-02-17 08:30:00,
2013-02-17 03:31:00,12.4,0.6,29.81,North,0,0.0,0.9,59,0.00,,,0.00,WUHU21623XXSP,2013-02-17 08:31:00,
2013-02-17 03:33:00,12.2,0.5,29.81,North,0,0.0,0.0,59,0.00,,,0.00,WUHU21623XXSP,2013-02-17 08:33:00,
2013-02-17 03:35:00,12.0,0.3,29.81,North,0,0.0,0.0,59,0.00,,,0.00,WUHU21623XXSP,2013-02-17 08:35:00,
2013-02-17 03:37:00,12.0,0.3,29.81,North,0,0.0,0.0,59,0.00,,,0.00,WUHU21623XXSP,2013-02-17 08:37:00,
2013-02-17 03:40:00,11.7,0.4,29.81,North,0,2.7,2.7,60,0.00,,,0.00,WUHU21623XXSP,2013-02-17 08:40:00,
2013-02-17 03:42:00,11.5,0.2,29.81,North,0,0.0,2.7,60,0.00,,,0.00,WUHU21623XXSP,2013-02-17 08:42:00,
2013-02-17 03:44:00,11.3,0.1,29.81,North,0,0.0,2.7,60,0.00,,,0.00,WUHU21623XXSP,2013-02-17 08:44:00,
2013-02-17 03:46:00,11.1,-0.1,29.81,North,0,0.0,2.7,60,0.00,,,0.00,WUHU21623XXSP,2013-02-17 08:46:00,
2013-02-17 03:48:00,10.9,-0.3,29.81,North,0,0.0,2.7,60,0.00,,,0.00,WUHU21623XXSP,2013-02-17 08:48:00,
2013-02-17 03:50:00,10.9,0.1,29.81,North,0,1.6,1.6,61,0.00,,,0.00,WUHU21623XXSP,2013-02-17 08:50:00,
2013-02-17 03:53:00,10.9,0.1,29.80,North,0,2.2,2.2,61,0.00,,,0.00,WUHU21623XXSP,2013-02-17 08:53:00,
2013-02-17 03:55:00,10.9,0.1,29.80,North,0,2.2,2.2,61,0.00,,,0.00,WUHU21623XXSP,2013-02-17 08:55:00,
2013-02-17 03:57:00,10.8,-0.1,29.80,North,0,0.0,2.2,61,0.00,,,0.00,WUHU21623XXSP,2013-02-17 08:57:00,
2013-02-17 03:59:00,10.6,-0.3,29.80,North,0,0.0,2.2,61,0.00,,,0.00,WUHU21623XXSP,2013-02-17 08:59:00,
2013-02-17 04:01:00,10.6,-0.3,29.80,NNE,22,0.0,2.2,61,0.00,,,0.00,WUHU21623XXSP,2013-02-17 09:01:00,
2013-02-17 04:03:00,10.6,-0.3,29.79,NNE,22,0.0,2.2,61,0.00,,,0.00,WUHU21623XXSP,2013-02-17 09:03:00,
2013-02-17 04:05:00,10.6,0.1,29.79,North,0,0.0,0.0,62,0.00,,,0.00,WUHU21623XXSP,2013-02-17 09:05:00,
2013-02-17 04:07:00,10.2,-0.3,29.79,North,0,0.0,0.0,62,0.00,,,0.00,WUHU21623XXSP,2013-02-17 09:07:00,
2013-02-17 04:10:00,10.2,-0.3,29.79,NNE,22,0.0,0.0,62,0.00,,,0.00,WUHU21623XXSP,2013-02-17 09:10:00,
2013-02-17 04:12:00,10.2,-0.3,29.79,NNE,22,0.0,0.0,62,0.00,,,0.00,WUHU21623XXSP,2013-02-17 09:12:00,
2013-02-17 04:14:00,10.2,-0.3,29.79,North,0,6.3,6.3,62,0.00,,,0.00,WUHU21623XXSP,2013-02-17 09:14:00,
2013-02-17 04:16:00,10.8,0.2,29.79,NNW,337,2.7,6.3,62,0.00,,,0.00,WUHU21623XXSP,2013-02-17 09:16:00,
2013-02-17 04:18:00,10.9,0.4,29.79,North,0,4.9,6.3,62,0.00,,,0.00,WUHU21623XXSP,2013-02-17 09:18:00,
2013-02-17 04:20:00,10.9,0.4,29.80,North,0,4.3,6.3,62,0.00,,,0.00,WUHU21623XXSP,2013-02-17 09:20:00,
2013-02-17 04:22:00,11.1,0.5,29.79,North,0,5.4,6.3,62,0.00,,,0.00,WUHU21623XXSP,2013-02-17 09:22:00,
2013-02-17 04:25:00,11.1,0.2,29.79,North,0,6.5,6.5,61,0.00,,,0.00,WUHU21623XXSP,2013-02-17 09:25:00,
2013-02-17 04:29:00,11.1,0.2,29.79,North,0,6.5,6.5,61,0.00,,,0.00,WUHU21623XXSP,2013-02-17 09:29:00,
2013-02-17 04:31:00,11.5,0.5,29.79,NNE,22,4.7,6.5,61,0.00,,,0.00,WUHU21623XXSP,2013-02-17 09:31:00,
2013-02-17 04:33:00,11.3,0.4,29.79,North,0,4.3,6.5,61,0.00,,,0.00,WUHU21623XXSP,2013-02-17 09:33:00,
2013-02-17 04:35:00,11.1,0.2,29.79,NNW,337,7.2,7.2,61,0.00,,,0.00,WUHU21623XXSP,2013-02-17 09:35:00,
2013-02-17 04:37:00,11.1,0.2,29.79,NNW,337,6.9,7.2,61,0.00,,,0.00,WUHU21623XXSP,2013-02-17 09:37:00,
2013-02-17 04:39:00,11.1,0.2,29.79,NNW,337,3.1,7.2,61,0.00,,,0.00,WUHU21623XXSP,2013-02-17 09:39:00,
2013-02-17 04:42:00,10.9,0.1,29.79,NNW,337,3.8,7.2,61,0.00,,,0.00,WUHU21623XXSP,2013-02-17 09:42:00,
2013-02-17 04:44:00,10.9,0.1,29.80,NNW,337,0.9,7.2,61,0.00,,,0.00,WUHU21623XXSP,2013-02-17 09:44:00,
2013-02-17 04:46:00,10.8,-0.1,29.80,NNW,337,0.9,6.9,61,0.00,,,0.00,WUHU21623XXSP,2013-02-17 09:46:00,
2013-02-17 04:48:00,10.6,-0.3,29.80,NNW,337,0.0,3.8,61,0.00,,,0.00,WUHU21623XXSP,2013-02-17 09:48:00,
2013-02-17 04:50:00,10.6,0.1,29.81,NNW,337,0.0,3.8,62,0.00,,,0.00,WUHU21623XXSP,2013-02-17 09:50:00,
2013-02-17 04:52:00,10.6,0.1,29.81,NNW,337,0.0,0.9,62,0.00,,,0.00,WUHU21623XXSP,2013-02-17 09:52:00,
2013-02-17 04:54:00,10.2,-0.3,29.81,NNW,337,0.0,0.9,62,0.00,,,0.00,WUHU21623XXSP,2013-02-17 09:54:00,
2013-02-17 04:57:00,10.0,-0.5,29.81,NW,315,0.0,0.0,62,0.00,,,0.00,WUHU21623XXSP,2013-02-17 09:57:00,
2013-02-17 04:59:00,9.7,-0.5,29.81,NW,315,0.0,0.0,63,0.00,,,0.00,WUHU21623XXSP,2013-02-17 09:59:00,
2013-02-17 05:01:00,9.7,-0.5,29.81,WNW,292,1.1,1.1,63,0.00,,,0.00,WUHU21623XXSP,2013-02-17 10:01:00,
2013-02-17 05:03:00,9.7,-0.5,29.81,WNW,292,0.0,1.1,63,0.00,,,0.00,WUHU21623XXSP,2013-02-17 10:03:00,
2013-02-17 05:05:00,9.7,-0.5,29.80,WNW,292,4.0,4.0,63,0.00,,,0.00,WUHU21623XXSP,2013-02-17 10:05:00,
2013-02-17 05:07:00,9.7,-0.5,29.81,NW,315,5.1,5.1,63,0.00,,,0.00,WUHU21623XXSP,2013-02-17 10:07:00,
2013-02-17 05:09:00,9.7,-0.5,29.81,West,270,4.5,5.1,63,0.00,,,0.00,WUHU21623XXSP,2013-02-17 10:09:00,
2013-02-17 05:11:00,9.7,-0.2,29.81,NNW,337,6.0,6.0,64,0.00,,,0.00,WUHU21623XXSP,2013-02-17 10:11:00,
2013-02-17 05:14:00,9.7,-0.2,29.81,NW,315,6.9,6.9,64,0.00,,,0.00,WUHU21623XXSP,2013-02-17 10:14:00,
2013-02-17 05:16:00,9.7,-0.2,29.81,NW,315,1.6,6.9,64,0.00,,,0.00,WUHU21623XXSP,2013-02-17 10:16:00,
2013-02-17 05:18:00,9.7,-0.2,29.81,WNW,292,2.0,6.9,64,0.00,,,0.00,WUHU21623XXSP,2013-02-17 10:18:00,
2013-02-17 05:20:00,9.7,-0.2,29.81,NNW,337,6.5,6.9,64,0.00,,,0.00,WUHU21623XXSP,2013-02-17 10:20:00,
2013-02-17 05:22:00,9.7,-0.2,29.81,NW,315,5.8,6.9,64,0.00,,,0.00,WUHU21623XXSP,2013-02-17 10:22:00,
2013-02-17 05:24:00,9.7,-0.2,29.81,WNW,292,1.8,6.5,64,0.00,,,0.00,WUHU21623XXSP,2013-02-17 10:24:00,
2013-02-17 05:27:00,9.7,-0.2,29.81,WNW,292,1.8,6.5,64,0.00,,,0.00,WUHU21623XXSP,2013-02-17 10:27:00,
2013-02-17 05:30:00,9.7,-0.2,29.82,NW,315,4.9,6.5,64,0.00,,,0.00,WUHU21623XXSP,2013-02-17 10:30:00,
2013-02-17 05:31:00,9.7,-0.2,29.82,NW,315,2.5,5.8,64,0.00,,,0.00,WUHU21623XXSP,2013-02-17 10:31:00,
2013-02-17 05:33:00,9.5,-0.3,29.81,North,0,7.8,7.8,64,0.00,,,0.00,WUHU21623XXSP,2013-02-17 10:33:00,
2013-02-17 05:35:00,9.5,-0.3,29.81,NNW,337,4.9,7.8,64,0.00,,,0.00,WUHU21623XXSP,2013-02-17 10:35:00,
2013-02-17 05:37:00,9.5,-0.3,29.81,NW,315,7.2,7.8,64,0.00,,,0.00,WUHU21623XXSP,2013-02-17 10:37:00,
2013-02-17 05:39:00,9.5,-0.3,29.81,NW,315,4.9,7.8,64,0.00,,,0.00,WUHU21623XXSP,2013-02-17 10:39:00,
2013-02-17 05:42:00,9.3,-0.5,29.81,WNW,292,3.1,7.8,64,0.00,,,0.00,WUHU21623XXSP,2013-02-17 10:42:00,
2013-02-17 05:44:00,9.1,-0.7,29.81,NW,315,2.2,7.2,64,0.00,,,0.00,WUHU21623XXSP,2013-02-17 10:44:00,
2013-02-17 05:46:00,9.1,-0.7,29.82,NNW,337,5.4,7.2,64,0.00,,,0.00,WUHU21623XXSP,2013-02-17 10:46:00,
2013-02-17 05:48:00,9.1,-0.7,29.82,NW,315,6.5,6.5,64,0.00,,,0.00,WUHU21623XXSP,2013-02-17 10:48:00,
2013-02-17 05:50:00,9.0,-0.9,29.81,NW,315,6.3,6.5,64,0.00,,,0.00,WUHU21623XXSP,2013-02-17 10:50:00,
2013-02-17 05:52:00,9.0,-0.9,29.82,NNW,337,4.7,6.5,64,0.00,,,0.00,WUHU21623XXSP,2013-02-17 10:52:00,
2013-02-17 05:54:00,8.8,-0.7,29.81,NNW,337,2.0,6.5,65,0.00,,,0.00,WUHU21623XXSP,2013-02-17 10:54:00,
2013-02-17 05:56:00,8.8,-0.7,29.81,NNW,337,7.2,7.2,65,0.00,,,0.00,WUHU21623XXSP,2013-02-17 10:56:00,
2013-02-17 05:59:00,8.8,-0.7,29.82,NNW,337,10.1,10.1,65,0.00,,,0.00,WUHU21623XXSP,2013-02-17 10:59:00,
2013-02-17 06:01:00,8.8,-0.7,29.82,NNW,337,7.4,10.1,65,0.00,,,0.00,WUHU21623XXSP,2013-02-17 11:01:00,
2013-02-17 06:03:00,8.8,-0.7,29.82,NNW,337,5.4,10.1,65,0.00,,,0.00,WUHU21623XXSP,2013-02-17 11:03:00,
2013-02-17 06:05:00,8.6,-0.9,29.82,NNW,337,6.9,10.1,65,0.00,,,0.00,WUHU21623XXSP,2013-02-17 11:05:00,
2013-02-17 06:07:00,8.6,-0.9,29.82,NNW,337,4.3,10.1,65,0.00,,,0.00,WUHU21623XXSP,2013-02-17 11:07:00,
2013-02-17 06:09:00,8.4,-1.0,29.82,NW,315,6.9,7.4,65,0.00,,,0.00,WUHU21623XXSP,2013-02-17 11:09:00,
2013-02-17 06:11:00,8.4,-1.0,29.82,NNW,337,6.9,6.9,65,0.00,,,0.00,WUHU21623XXSP,2013-02-17 11:11:00,
2013-02-17 06:14:00,8.4,-1.0,29.82,North,0,6.3,6.9,65,0.00,,,0.00,WUHU21623XXSP,2013-02-17 11:14:00,
2013-02-17 06:16:00,8.4,-1.0,29.82,NNW,337,4.7,6.9,65,0.00,,,0.00,WUHU21623XXSP,2013-02-17 11:16:00,
2013-02-17 06:18:00,8.2,-0.9,29.82,NNW,337,8.1,8.1,66,0.00,,,0.00,WUHU21623XXSP,2013-02-17 11:18:00,
2013-02-17 06:20:00,8.2,-0.9,29.82,NNW,337,6.9,8.1,66,0.00,,,0.00,WUHU21623XXSP,2013-02-17 11:20:00,
2013-02-17 06:22:00,8.1,-1.4,29.82,NNW,337,9.6,9.6,65,0.00,,,0.00,WUHU21623XXSP,2013-02-17 11:22:00,
2013-02-17 06:24:00,7.9,-1.2,29.82,NW,315,6.0,9.6,66,0.00,,,0.00,WUHU21623XXSP,2013-02-17 11:24:00,
2013-02-17 06:26:00,7.9,-1.2,29.82,NW,315,5.8,9.6,66,0.00,,,0.00,WUHU21623XXSP,2013-02-17 11:26:00,
2013-02-17 06:29:00,7.9,-1.2,29.81,NNW,337,6.9,9.6,66,0.00,,,0.00,WUHU21623XXSP,2013-02-17 11:29:00,
2013-02-17 06:31:00,7.9,-1.2,29.82,NNW,337,5.4,9.6,66,0.00,,,0.00,WUHU21623XXSP,2013-02-17 11:31:00,
2013-02-17 06:33:00,7.9,-0.9,29.82,NNW,337,6.3,6.9,67,0.00,,,0.00,WUHU21623XXSP,2013-02-17 11:33:00,
2013-02-17 06:35:00,7.9,-0.9,29.81,NNW,337,8.3,8.3,67,0.00,,,0.00,WUHU21623XXSP,2013-02-17 11:35:00,
2013-02-17 06:37:00,7.7,-1.0,29.82,NNW,337,11.0,11.0,67,0.00,,,0.00,WUHU21623XXSP,2013-02-17 11:37:00,
2013-02-17 06:39:00,7.7,-1.0,29.82,NNW,337,8.3,11.0,67,0.00,,,0.00,WUHU21623XXSP,2013-02-17 11:39:00,
2013-02-17 06:41:00,7.5,-1.2,29.82,NNW,337,7.6,11.0,67,0.00,,,0.00,WUHU21623XXSP,2013-02-17 11:41:00,
2013-02-17 06:44:00,7.5,-1.2,29.82,NNW,337,5.6,11.0,67,0.00,,,0.00,WUHU21623XXSP,2013-02-17 11:44:00,
2013-02-17 06:46:00,7.5,-1.2,29.82,NW,315,8.3,11.0,67,0.00,,,0.00,WUHU21623XXSP,2013-02-17 11:46:00,
2013-02-17 06:48:00,7.5,-1.2,29.82,North,0,5.6,8.3,67,0.00,,,0.00,WUHU21623XXSP,2013-02-17 11:48:00,
2013-02-17 06:50:00,7.5,-1.2,29.81,NNW,337,8.3,8.3,67,0.00,,,0.00,WUHU21623XXSP,2013-02-17 11:50:00,
2013-02-17 06:52:00,7.5,-1.2,29.82,NNW,337,8.7,8.7,67,0.00,,,0.00,WUHU21623XXSP,2013-02-17 11:52:00,
2013-02-17 06:54:00,7.5,-1.2,29.81,NNW,337,7.4,8.7,67,0.00,,,0.00,WUHU21623XXSP,2013-02-17 11:54:00,
2013-02-17 06:57:00,7.5,-1.2,29.81,NW,315,4.0,8.7,67,0.00,,,0.00,WUHU21623XXSP,2013-02-17 11:57:00,
2013-02-17 06:59:00,7.3,-1.4,29.81,NW,315,10.1,10.1,67,0.00,,,0.00,WUHU21623XXSP,2013-02-17 11:59:00,
2013-02-17 07:01:00,7.5,-1.2,29.81,NW,315,7.8,10.1,67,0.00,,,0.00,WUHU21623XXSP,2013-02-17 12:01:00,
2013-02-17 07:03:00,7.5,-1.6,29.81,NNW,337,8.3,10.1,66,0.00,,,0.00,WUHU21623XXSP,2013-02-17 12:03:00,
2013-02-17 07:05:00,7.5,-1.2,29.81,NW,315,6.3,10.1,67,0.00,,,0.00,WUHU21623XXSP,2013-02-17 12:05:00,
2013-02-17 07:07:00,7.5,-1.6,29.81,NNW,337,7.4,10.1,66,0.00,,,0.00,WUHU21623XXSP,2013-02-17 12:07:00,
2013-02-17 07:09:00,7.5,-1.6,29.81,North,0,7.2,8.3,66,0.00,,,0.00,WUHU21623XXSP,2013-02-17 12:09:00,
2013-02-17 07:11:00,7.5,-1.2,29.81,NW,315,8.1,8.3,67,0.00,,,0.00,WUHU21623XXSP,2013-02-17 12:11:00,
2013-02-17 07:14:00,7.9,-1.2,29.82,NNW,337,5.1,8.1,66,0.00,,,0.00,WUHU21623XXSP,2013-02-17 12:14:00,
2013-02-17 07:16:00,7.7,-1.4,29.82,NNW,337,8.3,8.3,66,0.00,,,0.00,WUHU21623XXSP,2013-02-17 12:16:00,
2013-02-17 07:18:00,7.7,-1.4,29.82,NW,315,7.6,8.3,66,0.00,,,0.00,WUHU21623XXSP,2013-02-17 12:18:00,
2013-02-17 07:20:00,7.7,-1.4,29.82,NW,315,4.7,8.3,66,0.00,,,0.00,WUHU21623XXSP,2013-02-17 12:20:00,
2013-02-17 07:22:00,7.5,-1.6,29.82,NNW,337,9.2,9.2,66,0.00,,,0.00,WUHU21623XXSP,2013-02-17 12:22:00,
2013-02-17 07:24:00,7.5,-1.6,29.82,North,0,6.7,9.2,66,0.00,,,0.00,WUHU21623XXSP,2013-02-17 12:24:00,
2013-02-17 07:26:00,7.7,-1.4,29.82,NNW,337,7.2,9.2,66,0.00,,,0.00,WUHU21623XXSP,2013-02-17 12:26:00,
2013-02-17 07:29:00,7.9,-1.2,29.82,North,0,6.5,9.2,66,0.00,,,0.00,WUHU21623XXSP,2013-02-17 12:29:00,
2013-02-17 07:31:00,8.1,-1.4,29.82,NNW,337,6.9,9.2,65,0.00,,,0.00,WUHU21623XXSP,2013-02-17 12:31:00,
2013-02-17 07:33:00,8.2,-1.2,29.82,NNW,337,7.4,7.4,65,0.00,,,0.00,WUHU21623XXSP,2013-02-17 12:33:00,
2013-02-17 07:35:00,8.4,-1.0,29.82,North,0,10.5,10.5,65,0.00,,,0.00,WUHU21623XXSP,2013-02-17 12:35:00,
2013-02-17 07:37:00,8.6,-0.9,29.82,NNW,337,6.0,10.5,65,0.00,,,0.00,WUHU21623XXSP,2013-02-17 12:37:00,
2013-02-17 07:39:00,8.8,-1.0,29.81,NNW,337,8.1,10.5,64,0.00,,,0.00,WUHU21623XXSP,2013-02-17 12:39:00,
2013-02-17 07:41:00,9.0,-0.9,29.81,NW,315,13.9,13.9,64,0.00,,,0.00,WUHU21623XXSP,2013-02-17 12:41:00,
2013-02-17 07:43:00,9.1,-0.7,29.81,NW,315,7.8,13.9,64,0.00,,,0.00,WUHU21623XXSP,2013-02-17 12:43:00,
2013-02-17 07:46:00,9.1,-1.0,29.81,NNW,337,12.8,13.9,63,0.00,,,0.00,WUHU21623XXSP,2013-02-17 12:46:00,
2013-02-17 07:48:00,9.1,-1.0,29.81,NNW,337,15.7,15.7,63,0.00,,,0.00,WUHU21623XXSP,2013-02-17 12:48:00,
2013-02-17 07:50:00,9.1,-1.0,29.81,NNW,337,11.9,15.7,63,0.00,,,0.00,WUHU21623XXSP,2013-02-17 12:50:00,
2013-02-17 07:52:00,9.1,-1.0,29.81,NNE,22,12.8,15.7,63,0.00,,,0.00,WUHU21623XXSP,2013-02-17 12:52:00,
2013-02-17 07:54:00,9.1,-1.0,29.81,NNW,337,11.4,15.7,63,0.00,,,0.00,WUHU21623XXSP,2013-02-17 12:54:00,
2013-02-17 07:56:00,9.1,-1.0,29.81,North,0,13.4,15.7,63,0.00,,,0.00,WUHU21623XXSP,2013-02-17 12:56:00,
2013-02-17 07:58:00,9.3,-0.9,29.81,NNW,337,8.9,13.4,63,0.00,,,0.00,WUHU21623XXSP,2013-02-17 12:58:00,
2013-02-17 08:01:00,9.5,-0.7,29.81,North,0,7.2,13.4,63,0.00,,,0.00,WUHU21623XXSP,2013-02-17 13:01:00,
2013-02-17 08:03:00,9.5,-0.7,29.81,North,0,12.5,13.4,63,0.00,,,0.00,WUHU21623XXSP,2013-02-17 13:03:00,
2013-02-17 08:05:00,9.7,-0.5,29.81,NNW,337,8.7,13.4,63,0.00,,,0.00,WUHU21623XXSP,2013-02-17 13:05:00,
2013-02-17 08:07:00,10.0,-0.5,29.81,North,0,11.9,12.5,62,0.00,,,0.00,WUHU21623XXSP,2013-02-17 13:07:00,
2013-02-17 08:09:00,10.0,-0.5,29.81,North,0,8.5,12.5,62,0.00,,,0.00,WUHU21623XXSP,2013-02-17 13:09:00,
2013-02-17 08:11:00,10.0,-0.5,29.81,NNW,337,6.7,12.5,62,0.00,,,0.00,WUHU21623XXSP,2013-02-17 13:11:00,
2013-02-17 08:13:00,10.0,-0.5,29.81,North,0,10.3,11.9,62,0.00,,,0.00,WUHU21623XXSP,2013-02-17 13:13:00,
2013-02-17 08:16:00,10.0,-0.5,29.82,NNW,337,7.8,11.9,62,0.00,,,0.00,WUHU21623XXSP,2013-02-17 13:16:00,
2013-02-17 08:18:00,10.2,-0.3,29.82,NNW,337,7.4,10.3,62,0.00,,,0.00,WUHU21623XXSP,2013-02-17 13:18:00,
2013-02-17 08:20:00,10.6,0.1,29.82,North,0,7.8,10.3,62,0.00,,,0.00,WUHU21623XXSP,2013-02-17 13:20:00,
2013-02-17 08:22:00,10.9,0.1,29.82,NNW,337,11.0,11.0,61,0.00,,,0.00,WUHU21623XXSP,2013-02-17 13:22:00,
2013-02-17 08:24:00,10.9,0.1,29.82,NNW,337,13.4,13.4,61,0.00,,,0.00,WUHU21623XXSP,2013-02-17 13:24:00,
2013-02-17 08:26:00,10.8,-0.1,29.82,NNW,337,7.8,13.4,61,0.00,,,0.00,WUHU21623XXSP,2013-02-17 13:26:00,
2013-02-17 08:28:00,10.9,0.1,29.82,North,0,8.5,13.4,61,0.00,,,0.00,WUHU21623XXSP,2013-02-17 13:28:00,
2013-02-17 08:31:00,11.1,0.2,29.82,NW,315,7.6,13.4,61,0.00,,,0.00,WUHU21623XXSP,2013-02-17 13:31:00,
2013-02-17 08:33:00,11.3,0.1,29.82,NW,315,4.9,13.4,60,0.00,,,0.00,WUHU21623XXSP,2013-02-17 13:33:00,
2013-02-17 08:35:00,11.7,0.4,29.82,NNW,337,6.9,8.5,60,0.00,,,0.00,WUHU21623XXSP,2013-02-17 13:35:00,
2013-02-17 08:37:00,11.3,-0.3,29.82,NNW,337,7.2,8.5,59,0.00,,,0.00,WUHU21623XXSP,2013-02-17 13:37:00,
2013-02-17 08:39:00,11.5,-0.2,29.82,NNW,337,7.4,7.6,59,0.00,,,0.00,WUHU21623XXSP,2013-02-17 13:39:00,
2013-02-17 08:41:00,11.5,-0.2,29.82,NNE,22,10.3,10.3,59,0.00,,,0.00,WUHU21623XXSP,2013-02-17 13:41:00,
2013-02-17 08:44:00,11.3,-0.7,29.82,NW,315,19.7,19.7,58,0.00,,,0.00,WUHU21623XXSP,2013-02-17 13:44:00,
2013-02-17 08:46:00,11.1,-0.9,29.82,NNW,337,18.6,19.7,58,0.00,,,0.00,WUHU21623XXSP,2013-02-17 13:46:00,
2013-02-17 08:48:00,10.9,-1.0,29.82,North,0,8.5,19.7,58,0.00,,,0.00,WUHU21623XXSP,2013-02-17 13:48:00,
2013-02-17 08:50:00,11.1,-0.9,29.82,NNW,337,9.8,19.7,58,0.00,,,0.00,WUHU21623XXSP,2013-02-17 13:50:00,
2013-02-17 08:52:00,11.5,-0.9,29.82,NW,315,12.1,19.7,57,0.00,,,0.00,WUHU21623XXSP,2013-02-17 13:52:00,
2013-02-17 08:54:00,11.5,-0.9,29.82,NNE,22,9.6,18.6,57,0.00,,,0.00,WUHU21623XXSP,2013-02-17 13:54:00,
2013-02-17 08:56:00,12.0,-0.4,29.82,NNW,337,7.2,12.1,57,0.00,,,0.00,WUHU21623XXSP,2013-02-17 13:56:00,
2013-02-17 08:58:00,12.0,-0.4,29.82,NNW,337,7.2,12.1,57,0.00,,,0.00,WUHU21623XXSP,2013-02-17 13:58:00,
2013-02-17 09:01:00,12.2,-0.3,29.82,North,0,12.3,12.3,57,0.00,,,0.00,WUHU21623XXSP,2013-02-17 14:01:00,
2013-02-17 09:03:00,12.4,-0.1,29.82,NNW,337,4.3,12.3,57,0.00,,,0.00,WUHU21623XXSP,2013-02-17 14:03:00,
2013-02-17 09:05:00,12.6,-0.3,29.82,North,0,9.2,12.3,56,0.00,,,0.00,WUHU21623XXSP,2013-02-17 14:05:00,
2013-02-17 09:07:00,12.7,-0.1,29.82,NNE,22,9.8,12.3,56,0.00,,,0.00,WUHU21623XXSP,2013-02-17 14:07:00,
2013-02-17 09:09:00,12.7,-0.5,29.81,North,0,6.3,12.3,55,0.00,,,0.00,WUHU21623XXSP,2013-02-17 14:09:00,
2013-02-17 09:11:00,12.9,0.0,29.81,NNW,337,8.7,9.8,56,0.00,,,0.00,WUHU21623XXSP,2013-02-17 14:11:00,
2013-02-17 09:13:00,12.9,0.0,29.81,NNW,337,7.4,9.8,56,0.00,,,0.00,WUHU21623XXSP,2013-02-17 14:13:00,
2013-02-17 09:16:00,13.3,0.4,29.81,North,0,6.0,9.8,56,0.00,,,0.00,WUHU21623XXSP,2013-02-17 14:16:00,
2013-02-17 09:18:00,13.6,0.3,29.81,North,0,7.8,8.7,55,0.00,,,0.00,WUHU21623XXSP,2013-02-17 14:18:00,
2013-02-17 09:20:00,13.5,0.2,29.81,North,0,8.7,8.7,55,0.00,,,0.00,WUHU21623XXSP,2013-02-17 14:20:00,
2013-02-17 09:22:00,13.6,0.3,29.81,North,0,8.3,8.7,55,0.00,,,0.00,WUHU21623XXSP,2013-02-17 14:22:00,
2013-02-17 09:24:00,13.8,0.1,29.81,North,0,5.1,8.7,54,0.00,,,0.00,WUHU21623XXSP,2013-02-17 14:24:00,
2013-02-17 09:26:00,14.2,0.8,29.81,NNW,337,5.1,8.7,55,0.00,,,0.00,WUHU21623XXSP,2013-02-17 14:26:00,
2013-02-17 09:28:00,14.7,1.4,29.81,NNE,22,9.2,9.2,55,0.00,,,0.00,WUHU21623XXSP,2013-02-17 14:28:00,
2013-02-17 09:30:00,14.7,0.6,29.81,NNW,337,7.2,9.2,53,0.00,,,0.00,WUHU21623XXSP,2013-02-17 14:30:00,
2013-02-17 09:33:00,14.7,0.6,29.81,NNW,337,10.3,10.3,53,0.00,,,0.00,WUHU21623XXSP,2013-02-17 14:33:00,
2013-02-17 09:35:00,14.7,0.6,29.81,NNE,22,7.6,10.3,53,0.00,,,0.00,WUHU21623XXSP,2013-02-17 14:35:00,
2013-02-17 09:37:00,14.7,0.6,29.81,North,0,10.7,10.7,53,0.00,,,0.00,WUHU21623XXSP,2013-02-17 14:37:00,
2013-02-17 09:39:00,14.9,0.4,29.81,NNW,337,7.4,10.7,52,0.00,,,0.00,WUHU21623XXSP,2013-02-17 14:39:00,
2013-02-17 09:41:00,15.3,0.7,29.80,NNW,337,8.5,10.7,52,0.00,,,0.00,WUHU21623XXSP,2013-02-17 14:41:00,
2013-02-17 09:43:00,15.1,0.5,29.80,North,0,7.2,10.7,52,0.00,,,0.00,WUHU21623XXSP,2013-02-17 14:43:00,
2013-02-17 09:46:00,15.6,1.1,29.81,NW,315,12.5,12.5,52,0.00,,,0.00,WUHU21623XXSP,2013-02-17 14:46:00,
2013-02-17 09:48:00,16.0,1.4,29.80,NNW,337,13.0,13.0,52,0.00,,,0.00,WUHU21623XXSP,2013-02-17 14:48:00,
2013-02-17 09:50:00,16.0,1.0,29.80,NNW,337,8.1,13.0,51,0.00,,,0.00,WUHU21623XXSP,2013-02-17 14:50:00,
2013-02-17 09:52:00,16.0,1.0,29.80,NNE,22,8.1,13.0,51,0.00,,,0.00,WUHU21623XXSP,2013-02-17 14:52:00,
2013-02-17 09:54:00,16.3,1.4,29.80,NNW,337,6.5,13.0,51,0.00,,,0.00,WUHU21623XXSP,2013-02-17 14:54:00,
2013-02-17 09:56:00,16.5,1.1,29.80,NNW,337,8.7,13.0,50,0.00,,,0.00,WUHU21623XXSP,2013-02-17 14:56:00,
2013-02-17 09:58:00,16.5,1.5,29.80,NW,315,5.4,8.7,51,0.00,,,0.00,WUHU21623XXSP,2013-02-17 14:58:00,
2013-02-17 10:01:00,17.2,1.8,29.80,NNW,337,8.5,8.7,50,0.00,,,0.00,WUHU21623XXSP,2013-02-17 15:01:00,
2013-02-17 10:03:00,17.2,2.2,29.79,NNW,337,2.7,8.7,51,0.00,,,0.00,WUHU21623XXSP,2013-02-17 15:03:00,
2013-02-17 10:05:00,17.8,2.3,29.80,NNW,337,6.3,8.7,50,0.00,,,0.00,WUHU21623XXSP,2013-02-17 15:05:00,
2013-02-17 10:07:00,17.4,2.0,29.79,NNW,337,12.3,12.3,50,0.00,,,0.00,WUHU21623XXSP,2013-02-17 15:07:00,
2013-02-17 10:09:00,17.4,2.0,29.80,NW,315,8.3,12.3,50,0.00,,,0.00,WUHU21623XXSP,2013-02-17 15:09:00,
2013-02-17 10:11:00,17.8,2.3,29.79,WNW,292,5.8,12.3,50,0.00,,,0.00,WUHU21623XXSP,2013-02-17 15:11:00,
2013-02-17 10:13:00,18.3,2.3,29.79,NNE,22,7.8,12.3,49,0.00,,,0.00,WUHU21623XXSP,2013-02-17 15:13:00,
2013-02-17 10:15:00,18.1,1.2,29.79,NW,315,12.5,12.5,47,0.00,,,0.00,WUHU21623XXSP,2013-02-17 15:15:00,
2013-02-17 10:18:00,18.1,1.2,29.79,NW,315,11.4,12.5,47,0.00,,,0.00,WUHU21623XXSP,2013-02-17 15:18:00,
2013-02-17 10:20:00,18.1,1.7,29.79,NW,315,8.3,12.5,48,0.00,,,0.00,WUHU21623XXSP,2013-02-17 15:20:00,
2013-02-17 10:22:00,18.3,1.8,29.79,NW,315,8.9,12.5,48,0.00,,,0.00,WUHU21623XXSP,2013-02-17 15:22:00,
2013-02-17 10:24:00,18.3,1.8,29.79,NW,315,8.9,12.5,48,0.00,,,0.00,WUHU21623XXSP,2013-02-17 15:24:00,
2013-02-17 10:26:00,18.3,1.8,29.79,NW,315,8.9,11.4,48,0.00,,,0.00,WUHU21623XXSP,2013-02-17 15:26:00,
2013-02-17 10:28:00,18.7,2.2,29.79,NW,315,8.7,8.9,48,0.00,,,0.00,WUHU21623XXSP,2013-02-17 15:28:00,
2013-02-17 10:30:00,19.0,2.0,29.79,West,270,6.3,8.9,47,0.00,,,0.00,WUHU21623XXSP,2013-02-17 15:30:00,
2013-02-17 10:33:00,19.2,2.2,29.79,NNW,337,9.4,9.4,47,0.00,,,0.00,WUHU21623XXSP,2013-02-17 15:33:00,
2013-02-17 10:35:00,19.6,2.5,29.79,NNW,337,12.1,12.1,47,0.00,,,0.00,WUHU21623XXSP,2013-02-17 15:35:00,
2013-02-17 10:37:00,19.8,2.2,29.79,WNW,292,7.6,12.1,46,0.00,,,0.00,WUHU21623XXSP,2013-02-17 15:37:00,
2013-02-17 10:39:00,19.8,1.7,29.79,NNW,337,18.3,18.3,45,0.00,,,0.00,WUHU21623XXSP,2013-02-17 15:39:00,
2013-02-17 10:41:00,19.2,1.7,29.79,NNW,337,8.3,18.3,46,0.00,,,0.00,WUHU21623XXSP,2013-02-17 15:41:00,
2013-02-17 10:43:00,19.8,2.2,29.78,NW,315,7.2,18.3,46,0.00,,,0.00,WUHU21623XXSP,2013-02-17 15:43:00,
2013-02-17 10:45:00,19.6,1.6,29.79,WNW,292,7.6,18.3,45,0.00,,,0.00,WUHU21623XXSP,2013-02-17 15:45:00,
2013-02-17 10:47:00,19.2,1.7,29.78,North,0,12.5,18.3,46,0.00,,,0.00,WUHU21623XXSP,2013-02-17 15:47:00,
2013-02-17 10:50:00,18.7,1.2,29.78,NNW,337,8.7,12.5,46,0.00,,,0.00,WUHU21623XXSP,2013-02-17 15:50:00,
2013-02-17 10:52:00,18.7,0.8,29.78,West,270,7.6,12.5,45,0.00,,,0.00,WUHU21623XXSP,2013-02-17 15:52:00,
2013-02-17 10:54:00,18.7,0.8,29.78,NW,315,8.3,12.5,45,0.00,,,0.00,WUHU21623XXSP,2013-02-17 15:54:00,
2013-02-17 10:56:00,18.3,0.9,29.78,NW,315,13.6,13.6,46,0.00,,,0.00,WUHU21623XXSP,2013-02-17 15:56:00,
2013-02-17 10:58:00,18.7,1.2,29.78,NW,315,11.6,13.6,46,0.00,,,0.00,WUHU21623XXSP,2013-02-17 15:58:00,
2013-02-17 11:00:00,19.2,1.7,29.78,NNW,337,8.5,13.6,46,0.00,,,0.00,WUHU21623XXSP,2013-02-17 16:00:00,
2013-02-17 11:02:00,19.2,1.2,29.77,NW,315,10.3,13.6,45,0.00,,,0.00,WUHU21623XXSP,2013-02-17 16:02:00,
2013-02-17 11:05:00,19.4,1.4,29.78,NNW,337,8.1,13.6,45,0.00,,,0.00,WUHU21623XXSP,2013-02-17 16:05:00,
2013-02-17 11:07:00,19.6,1.6,29.77,NW,315,13.4,13.4,45,0.00,,,0.00,WUHU21623XXSP,2013-02-17 16:07:00,
2013-02-17 11:09:00,19.2,1.2,29.78,NW,315,8.5,13.4,45,0.00,,,0.00,WUHU21623XXSP,2013-02-17 16:09:00,
2013-02-17 11:11:00,19.2,0.8,29.77,West,270,10.1,13.4,44,0.00,,,0.00,WUHU21623XXSP,2013-02-17 16:11:00,
2013-02-17 11:13:00,19.6,1.6,29.77,NW,315,8.7,13.4,45,0.00,,,0.00,WUHU21623XXSP,2013-02-17 16:13:00,
2013-02-17 11:15:00,20.1,2.0,29.77,NW,315,11.9,13.4,45,0.00,,,0.00,WUHU21623XXSP,2013-02-17 16:15:00,
2013-02-17 11:17:00,19.9,1.4,29.77,NW,315,10.5,11.9,44,0.00,,,0.00,WUHU21623XXSP,2013-02-17 16:17:00,
2013-02-17 11:20:00,20.1,2.0,29.77,NW,315,4.0,11.9,45,0.00,,,0.00,WUHU21623XXSP,2013-02-17 16:20:00,
2013-02-17 11:22:00,20.3,1.3,29.77,NW,315,11.9,11.9,43,0.00,,,0.00,WUHU21623XXSP,2013-02-17 16:22:00,
2013-02-17 11:24:00,20.1,1.6,29.77,NW,315,6.5,11.9,44,0.00,,,0.00,WUHU21623XXSP,2013-02-17 16:24:00,
2013-02-17 11:26:00,20.1,1.6,29.77,NW,315,13.6,13.6,44,0.00,,,0.00,WUHU21623XXSP,2013-02-17 16:26:00,
2013-02-17 11:28:00,19.9,1.4,29.77,West,270,13.2,13.6,44,0.00,,,0.00,WUHU21623XXSP,2013-02-17 16:28:00,
2013-02-17 11:30:00,19.8,1.3,29.77,NNW,337,6.5,13.6,44,0.00,,,0.00,WUHU21623XXSP,2013-02-17 16:30:00,
2013-02-17 11:32:00,19.9,1.4,29.77,West,270,7.8,13.6,44,0.00,,,0.00,WUHU21623XXSP,2013-02-17 16:32:00,
2013-02-17 11:35:00,20.1,1.6,29.77,NW,315,11.4,13.6,44,0.00,,,0.00,WUHU21623XXSP,2013-02-17 16:35:00,
2013-02-17 11:37:00,20.8,2.2,29.77,WNW,292,11.0,13.2,44,0.00,,,0.00,WUHU21623XXSP,2013-02-17 16:37:00,
2013-02-17 11:39:00,21.0,2.4,29.77,NNW,337,8.1,11.4,44,0.00,,,0.00,WUHU21623XXSP,2013-02-17 16:39:00,
2013-02-17 11:41:00,21.0,1.5,29.77,North,0,10.5,11.4,42,0.00,,,0.00,WUHU21623XXSP,2013-02-17 16:41:00,
2013-02-17 11:43:00,20.5,1.4,29.76,NNW,337,6.5,11.4,43,0.00,,,0.00,WUHU21623XXSP,2013-02-17 16:43:00,
2013-02-17 11:45:00,20.5,1.9,29.77,WNW,292,9.8,11.0,44,0.00,,,0.00,WUHU21623XXSP,2013-02-17 16:45:00,
2013-02-17 11:47:00,20.5,2.4,29.77,NW,315,9.4,10.5,45,0.00,,,0.00,WUHU21623XXSP,2013-02-17 16:47:00,
2013-02-17 11:49:00,20.5,2.4,29.77,NW,315,11.2,11.2,45,0.00,,,0.00,WUHU21623XXSP,2013-02-17 16:49:00,
2013-02-17 11:52:00,20.1,2.0,29.77,NW,315,7.8,11.2,45,0.00,,,0.00,WUHU21623XXSP,2013-02-17 16:52:00,
2013-02-17 11:54:00,20.3,2.2,29.77,NW,315,7.8,11.2,45,0.00,,,0.00,WUHU21623XXSP,2013-02-17 16:54:00,
2013-02-17 11:56:00,20.7,3.0,29.77,NW,315,16.6,16.6,46,0.00,,,0.00,WUHU21623XXSP,2013-02-17 16:56:00,
2013-02-17 11:58:00,20.5,2.8,29.77,NNW,337,4.0,16.6,46,0.00,,,0.00,WUHU21623XXSP,2013-02-17 16:58:00,
2013-02-17 12:00:00,19.9,1.4,29.77,NW,315,8.9,16.6,44,0.00,,,0.00,WUHU21623XXSP,2013-02-17 17:00:00,
2013-02-17 12:02:00,20.1,2.0,29.77,NW,315,5.6,16.6,45,0.00,,,0.00,WUHU21623XXSP,2013-02-17 17:02:00,
2013-02-17 12:04:00,19.9,1.9,29.77,NW,315,8.9,16.6,45,0.00,,,0.00,WUHU21623XXSP,2013-02-17 17:04:00,
2013-02-17 12:07:00,20.1,2.0,29.77,NW,315,8.9,8.9,45,0.00,,,0.00,WUHU21623XXSP,2013-02-17 17:07:00,
2013-02-17 12:09:00,19.8,1.7,29.77,NW,315,8.9,8.9,45,0.00,,,0.00,WUHU21623XXSP,2013-02-17 17:09:00,
2013-02-17 12:11:00,19.9,1.9,29.77,NW,315,12.8,12.8,45,0.00,,,0.00,WUHU21623XXSP,2013-02-17 17:11:00,
2013-02-17 12:13:00,19.4,0.9,29.77,WNW,292,8.3,12.8,44,0.00,,,0.00,WUHU21623XXSP,2013-02-17 17:13:00,
2013-02-17 12:15:00,19.6,1.6,29.77,West,270,12.3,12.8,45,0.00,,,0.00,WUHU21623XXSP,2013-02-17 17:15:00,
2013-02-17 12:17:00,19.2,1.2,29.77,WNW,292,8.1,12.8,45,0.00,,,0.00,WUHU21623XXSP,2013-02-17 17:17:00,
2013-02-17 12:20:00,19.4,1.4,29.77,West,270,11.4,12.8,45,0.00,,,0.00,WUHU21623XXSP,2013-02-17 17:20:00,
2013-02-17 12:22:00,19.6,1.6,29.77,WNW,292,12.5,12.5,45,0.00,,,0.00,WUHU21623XXSP,2013-02-17 17:22:00,
2013-02-17 12:24:00,19.8,1.7,29.78,WNW,292,12.5,12.5,45,0.00,,,0.00,WUHU21623XXSP,2013-02-17 17:24:00,
2013-02-17 12:26:00,19.8,1.7,29.77,WNW,292,12.5,12.5,45,0.00,,,0.00,WUHU21623XXSP,2013-02-17 17:26:00,
2013-02-17 12:28:00,19.8,1.7,29.77,WNW,292,12.5,12.5,45,0.00,,,0.00,WUHU21623XXSP,2013-02-17 17:28:00,
2013-02-17 12:30:00,19.6,1.6,29.77,NW,315,9.6,12.5,45,0.00,,,0.00,WUHU21623XXSP,2013-02-17 17:30:00,
2013-02-17 12:32:00,19.2,0.8,29.78,West,270,10.1,12.5,44,0.00,,,0.00,WUHU21623XXSP,2013-02-17 17:32:00,
2013-02-17 12:34:00,19.0,1.1,29.78,West,270,12.3,12.5,45,0.00,,,0.00,WUHU21623XXSP,2013-02-17 17:34:00,
2013-02-17 12:37:00,18.7,0.8,29.78,NW,315,7.8,12.5,45,0.00,,,0.00,WUHU21623XXSP,2013-02-17 17:37:00,
2013-02-17 12:39:00,18.9,0.9,29.77,West,270,8.3,12.3,45,0.00,,,0.00,WUHU21623XXSP,2013-02-17 17:39:00,
2013-02-17 12:41:00,18.9,0.9,29.78,West,270,8.3,12.3,45,0.00,,,0.00,WUHU21623XXSP,2013-02-17 17:41:00,
2013-02-17 12:43:00,18.9,0.9,29.77,West,270,8.3,12.3,45,0.00,,,0.00,WUHU21623XXSP,2013-02-17 17:43:00,
2013-02-17 12:45:00,18.1,-0.2,29.78,WSW,247,14.8,14.8,44,0.00,,,0.00,WUHU21623XXSP,2013-02-17 17:45:00,
2013-02-17 12:47:00,18.5,0.6,29.78,WSW,247,10.7,14.8,45,0.00,,,0.00,WUHU21623XXSP,2013-02-17 17:47:00,
2013-02-17 12:50:00,18.7,0.3,29.78,WSW,247,7.6,14.8,44,0.00,,,0.00,WUHU21623XXSP,2013-02-17 17:50:00,
2013-02-17 12:52:00,18.7,0.8,29.78,WSW,247,11.0,14.8,45,0.00,,,0.00,WUHU21623XXSP,2013-02-17 17:52:00,
2013-02-17 12:54:00,18.7,0.8,29.78,WSW,247,11.0,14.8,45,0.00,,,0.00,WUHU21623XXSP,2013-02-17 17:54:00,
2013-02-17 12:56:00,18.7,0.8,29.78,WSW,247,11.0,11.0,45,0.00,,,0.00,WUHU21623XXSP,2013-02-17 17:56:00,
2013-02-17 12:58:00,18.3,0.4,29.78,WSW,247,11.0,11.0,45,0.00,,,0.00,WUHU21623XXSP,2013-02-17 17:58:00,
2013-02-17 13:00:00,18.3,0.4,29.78,WSW,247,11.0,11.0,45,0.00,,,0.00,WUHU21623XXSP,2013-02-17 18:00:00,
2013-02-17 13:02:00,18.3,0.4,29.78,WSW,247,10.3,11.0,45,0.00,,,0.00,WUHU21623XXSP,2013-02-17 18:02:00,
2013-02-17 13:04:00,19.0,1.1,29.78,WSW,247,8.7,11.0,45,0.00,,,0.00,WUHU21623XXSP,2013-02-17 18:04:00,
2013-02-17 13:07:00,19.0,1.1,29.78,WSW,247,8.7,11.0,45,0.00,,,0.00,WUHU21623XXSP,2013-02-17 18:07:00,
2013-02-17 13:09:00,19.0,1.1,29.78,WSW,247,8.7,11.0,45,0.00,,,0.00,WUHU21623XXSP,2013-02-17 18:09:00,
2013-02-17 13:11:00,19.0,1.1,29.78,WSW,247,8.7,10.3,45,0.00,,,0.00,WUHU21623XXSP,2013-02-17 18:11:00,
2013-02-17 13:13:00,18.3,0.9,29.79,WSW,247,9.6,9.6,46,0.00,,,0.00,WUHU21623XXSP,2013-02-17 18:13:00,
2013-02-17 13:15:00,18.3,1.4,29.79,WSW,247,7.2,9.6,47,0.00,,,0.00,WUHU21623XXSP,2013-02-17 18:15:00,
2013-02-17 13:17:00,18.5,1.1,29.79,NW,315,10.1,10.1,46,0.00,,,0.00,WUHU21623XXSP,2013-02-17 18:17:00,
2013-02-17 13:19:00,18.3,1.4,29.79,NW,315,9.6,10.1,47,0.00,,,0.00,WUHU21623XXSP,2013-02-17 18:19:00,
2013-02-17 13:22:00,18.3,1.4,29.79,WSW,247,11.9,11.9,47,0.00,,,0.00,WUHU21623XXSP,2013-02-17 18:22:00,
2013-02-17 13:24:00,18.0,1.5,29.79,NW,315,15.2,15.2,48,0.00,,,0.00,WUHU21623XXSP,2013-02-17 18:24:00,
2013-02-17 13:26:00,18.0,1.0,29.79,WNW,292,11.2,15.2,47,0.00,,,0.00,WUHU21623XXSP,2013-02-17 18:26:00,
2013-02-17 13:28:00,18.0,1.0,29.79,WNW,292,11.2,15.2,47,0.00,,,0.00,WUHU21623XXSP,2013-02-17 18:28:00,
2013-02-17 13:30:00,18.0,1.0,29.79,WNW,292,11.2,15.2,47,0.00,,,0.00,WUHU21623XXSP,2013-02-17 18:30:00,
2013-02-17 13:32:00,18.0,1.0,29.79,WNW,292,11.2,15.2,47,0.00,,,0.00,WUHU21623XXSP,2013-02-17 18:32:00,
2013-02-17 13:34:00,18.0,1.0,29.79,WNW,292,11.2,11.2,47,0.00,,,0.00,WUHU21623XXSP,2013-02-17 18:34:00,
2013-02-17 13:36:00,18.0,1.0,29.79,WNW,292,11.2,11.2,47,0.00,,,0.00,WUHU21623XXSP,2013-02-17 18:36:00,
2013-02-17 13:51:00,16.0,2.0,29.80,WSW,247,11.0,11.0,54,0.00,,,0.00,WUHU21623XXSP,2013-02-17 18:51:00,
2013-02-17 13:54:00,16.2,2.3,29.80,WSW,247,6.5,11.0,54,0.00,,,0.00,WUHU21623XXSP,2013-02-17 18:54:00,
2013-02-17 13:56:00,16.2,2.3,29.80,WSW,247,6.5,11.0,54,0.00,,,0.00,WUHU21623XXSP,2013-02-17 18:56:00,
2013-02-17 13:58:00,16.2,2.3,29.80,WSW,247,6.5,11.0,54,0.00,,,0.00,WUHU21623XXSP,2013-02-17 18:58:00,
2013-02-17 14:00:00,16.3,2.1,29.80,WSW,247,7.6,11.0,53,0.00,,,0.00,WUHU21623XXSP,2013-02-17 19:00:00,
2013-02-17 14:02:00,16.3,2.1,29.80,WSW,247,14.8,14.8,53,0.00,,,0.00,WUHU21623XXSP,2013-02-17 19:02:00,
2013-02-17 14:04:00,16.3,2.1,29.81,WSW,247,14.8,14.8,53,0.00,,,0.00,WUHU21623XXSP,2013-02-17 19:04:00,
2013-02-17 14:06:00,16.3,2.1,29.81,WSW,247,8.9,14.8,53,0.00,,,0.00,WUHU21623XXSP,2013-02-17 19:06:00,
2013-02-17 14:08:00,16.3,2.1,29.81,WSW,247,8.9,14.8,53,0.00,,,0.00,WUHU21623XXSP,2013-02-17 19:08:00,
2013-02-17 14:11:00,16.3,2.1,29.81,WSW,247,8.9,14.8,53,0.00,,,0.00,WUHU21623XXSP,2013-02-17 19:11:00,
2013-02-17 14:13:00,15.6,1.8,29.81,WSW,247,9.2,14.8,54,0.00,,,0.00,WUHU21623XXSP,2013-02-17 19:13:00,
2013-02-17 14:15:00,15.6,1.8,29.81,WSW,247,7.8,9.2,54,0.00,,,0.00,WUHU21623XXSP,2013-02-17 19:15:00,
2013-02-17 14:17:00,15.6,1.8,29.81,WSW,247,7.8,9.2,54,0.00,,,0.00,WUHU21623XXSP,2013-02-17 19:17:00,
2013-02-17 14:19:00,15.6,1.8,29.81,WSW,247,7.8,9.2,54,0.00,,,0.00,WUHU21623XXSP,2013-02-17 19:19:00,
2013-02-17 14:21:00,15.6,1.8,29.81,WSW,247,7.8,9.2,54,0.00,,,0.00,WUHU21623XXSP,2013-02-17 19:21:00,
2013-02-17 14:23:00,15.6,1.8,29.81,WSW,247,7.8,7.8,54,0.00,,,0.00,WUHU21623XXSP,2013-02-17 19:23:00,
2013-02-17 14:26:00,15.6,1.8,29.81,WSW,247,7.8,7.8,54,0.00,,,0.00,WUHU21623XXSP,2013-02-17 19:26:00,
2013-02-17 15:05:00,15.6,1.8,29.81,WSW,247,7.8,7.8,54,0.00,,,0.00,WUHU21623XXSP,2013-02-17 20:05:00,
2013-02-17 15:21:00,13.6,1.9,29.83,West,270,6.7,6.7,59,0.00,,,0.00,WUHU21623XXSP,2013-02-17 20:21:00,
2013-02-17 15:23:00,13.6,1.9,29.83,West,270,6.7,6.7,59,0.00,,,0.00,WUHU21623XXSP,2013-02-17 20:23:00,
2013-02-17 15:26:00,13.6,1.9,29.82,West,270,6.7,6.7,59,0.00,,,0.00,WUHU21623XXSP,2013-02-17 20:26:00,
2013-02-17 15:28:00,13.6,1.9,29.83,West,270,6.7,6.7,59,0.00,,,0.00,WUHU21623XXSP,2013-02-17 20:28:00,
2013-02-17 15:30:00,13.6,1.9,29.83,West,270,6.7,6.7,59,0.00,,,0.00,WUHU21623XXSP,2013-02-17 20:30:00,
2013-02-17 15:32:00,13.6,1.9,29.83,West,270,6.7,6.7,59,0.00,,,0.00,WUHU21623XXSP,2013-02-17 20:32:00,
2013-02-17 15:34:00,13.6,1.9,29.83,West,270,6.7,6.7,59,0.00,,,0.00,WUHU21623XXSP,2013-02-17 20:34:00,
2013-02-17 15:36:00,13.6,1.9,29.83,West,270,6.7,6.7,59,0.00,,,0.00,WUHU21623XXSP,2013-02-17 20:36:00,
2013-02-17 15:38:00,13.6,1.9,29.83,West,270,6.7,6.7,59,0.00,,,0.00,WUHU21623XXSP,2013-02-17 20:38:00,
2013-02-17 15:40:00,13.6,1.9,29.83,West,270,6.7,6.7,59,0.00,,,0.00,WUHU21623XXSP,2013-02-17 20:40:00,
2013-02-17 15:56:00,13.3,2.6,29.83,NW,315,10.5,10.5,62,0.00,,,0.00,WUHU21623XXSP,2013-02-17 20:56:00,
2013-02-17 15:58:00,13.3,2.6,29.83,NW,315,10.5,10.5,62,0.00,,,0.00,WUHU21623XXSP,2013-02-17 20:58:00,
2013-02-17 16:00:00,13.3,2.6,29.83,NW,315,10.5,10.5,62,0.00,,,0.00,WUHU21623XXSP,2013-02-17 21:00:00,
2013-02-17 16:02:00,13.3,2.6,29.83,NW,315,10.5,10.5,62,0.00,,,0.00,WUHU21623XXSP,2013-02-17 21:02:00,
2013-02-17 16:04:00,13.3,2.6,29.83,NW,315,10.5,10.5,62,0.00,,,0.00,WUHU21623XXSP,2013-02-17 21:04:00,
2013-02-17 16:06:00,13.3,2.6,29.84,NW,315,10.5,10.5,62,0.00,,,0.00,WUHU21623XXSP,2013-02-17 21:06:00,
2013-02-17 16:08:00,13.3,2.6,29.84,NW,315,10.5,10.5,62,0.00,,,0.00,WUHU21623XXSP,2013-02-17 21:08:00,
2013-02-17 16:10:00,13.3,2.6,29.84,NW,315,10.5,10.5,62,0.00,,,0.00,WUHU21623XXSP,2013-02-17 21:10:00,
2013-02-17 16:13:00,13.3,2.6,29.84,NW,315,10.5,10.5,62,0.00,,,0.00,WUHU21623XXSP,2013-02-17 21:13:00,
2013-02-17 16:15:00,13.3,2.6,29.84,NW,315,10.5,10.5,62,0.00,,,0.00,WUHU21623XXSP,2013-02-17 21:15:00,
2013-02-17 16:22:00,13.6,1.9,29.83,West,270,6.7,6.7,59,0.00,,,0.00,WUHU21623XXSP,2013-02-17 21:22:00,
2013-02-17 16:30:00,11.5,2.6,29.85,NW,315,7.8,7.8,67,0.00,,,0.00,WUHU21623XXSP,2013-02-17 21:30:00,
2013-02-17 16:32:00,11.5,2.6,29.85,NNW,337,11.6,11.6,67,0.00,,,0.00,WUHU21623XXSP,2013-02-17 21:32:00,
2013-02-17 16:34:00,11.5,2.6,29.85,NNW,337,11.6,11.6,67,0.00,,,0.00,WUHU21623XXSP,2013-02-17 21:34:00,
2013-02-17 16:36:00,11.5,2.6,29.85,NNW,337,11.6,11.6,67,0.00,,,0.00,WUHU21623XXSP,2013-02-17 21:36:00,
2013-02-17 16:38:00,11.5,2.6,29.85,NNW,337,11.6,11.6,67,0.00,,,0.00,WUHU21623XXSP,2013-02-17 21:38:00,
2013-02-17 16:40:00,11.5,2.6,29.85,WNW,292,5.8,11.6,67,0.00,,,0.00,WUHU21623XXSP,2013-02-17 21:40:00,
2013-02-17 16:43:00,11.5,3.2,29.85,WNW,292,5.8,11.6,69,0.00,,,0.00,WUHU21623XXSP,2013-02-17 21:43:00,
2013-02-17 16:45:00,11.5,3.2,29.85,NNW,337,9.8,11.6,69,0.00,,,0.00,WUHU21623XXSP,2013-02-17 21:45:00,
2013-02-17 16:47:00,11.3,3.0,29.86,NW,315,7.2,11.6,69,0.00,,,0.00,WUHU21623XXSP,2013-02-17 21:47:00,
2013-02-17 16:49:00,11.3,3.0,29.86,NW,315,7.2,9.8,69,0.00,,,0.00,WUHU21623XXSP,2013-02-17 21:49:00,
2013-02-17 16:51:00,11.3,3.0,29.86,NW,315,7.2,9.8,69,0.00,,,0.00,WUHU21623XXSP,2013-02-17 21:51:00,
2013-02-17 16:53:00,11.3,3.0,29.86,NW,315,7.2,9.8,69,0.00,,,0.00,WUHU21623XXSP,2013-02-17 21:53:00,
2013-02-17 16:55:00,11.3,3.0,29.86,NW,315,7.2,7.2,69,0.00,,,0.00,WUHU21623XXSP,2013-02-17 21:55:00,
2013-02-17 16:57:00,11.3,3.0,29.86,NW,315,7.2,7.2,69,0.00,,,0.00,WUHU21623XXSP,2013-02-17 21:57:00,
2013-02-17 17:00:00,11.3,3.0,29.86,NW,315,7.2,7.2,69,0.00,,,0.00,WUHU21623XXSP,2013-02-17 22:00:00,
2013-02-17 17:02:00,10.9,3.0,29.86,NW,315,7.2,7.2,69,0.00,,,0.00,WUHU21623XXSP,2013-02-17 22:02:00,
2013-02-17 17:04:00,10.9,2.7,29.86,NW,315,7.2,7.2,69,0.00,,,0.00,WUHU21623XXSP,2013-02-17 22:04:00,
2013-02-17 17:06:00,10.9,2.7,29.86,NW,315,7.2,7.2,69,0.00,,,0.00,WUHU21623XXSP,2013-02-17 22:06:00,
2013-02-17 17:08:00,10.8,2.5,29.86,NW,315,6.9,7.2,69,0.00,,,0.00,WUHU21623XXSP,2013-02-17 22:08:00,
2013-02-17 17:10:00,10.8,2.5,29.87,NW,315,6.9,7.2,69,0.00,,,0.00,WUHU21623XXSP,2013-02-17 22:10:00,
2013-02-17 17:13:00,10.6,2.3,29.87,NW,315,6.3,7.2,69,0.00,,,0.00,WUHU21623XXSP,2013-02-17 22:13:00,
2013-02-17 17:15:00,10.6,2.3,29.87,NNW,337,7.2,7.2,69,0.00,,,0.00,WUHU21623XXSP,2013-02-17 22:15:00,
2013-02-17 17:17:00,10.6,2.7,29.87,NW,315,5.4,7.2,70,0.00,,,0.00,WUHU21623XXSP,2013-02-17 22:17:00,
2013-02-17 17:19:00,10.6,2.7,29.87,NW,315,5.1,7.2,70,0.00,,,0.00,WUHU21623XXSP,2013-02-17 22:19:00,
2013-02-17 17:21:00,10.6,2.7,29.87,WSW,247,6.9,7.2,70,0.00,,,0.00,WUHU21623XXSP,2013-02-17 22:21:00,
2013-02-17 17:23:00,10.6,2.7,29.87,WSW,247,6.9,7.2,70,0.00,,,0.00,WUHU21623XXSP,2013-02-17 22:23:00,
2013-02-17 17:25:00,10.6,2.7,29.87,WSW,247,6.9,6.9,70,0.00,,,0.00,WUHU21623XXSP,2013-02-17 22:25:00,
2013-02-17 17:28:00,10.6,2.9,29.87,NNW,337,7.8,7.8,71,0.00,,,0.00,WUHU21623XXSP,2013-02-17 22:28:00,
2013-02-17 17:30:00,10.6,2.9,29.88,NNW,337,7.8,7.8,71,0.00,,,0.00,WUHU21623XXSP,2013-02-17 22:30:00,
2013-02-17 17:32:00,10.6,2.9,29.88,NNW,337,7.8,7.8,71,0.00,,,0.00,WUHU21623XXSP,2013-02-17 22:32:00,
2013-02-17 17:34:00,10.6,2.9,29.88,NNW,337,8.1,8.1,71,0.00,,,0.00,WUHU21623XXSP,2013-02-17 22:34:00,
2013-02-17 17:36:00,10.6,2.9,29.88,NNW,337,7.6,8.1,71,0.00,,,0.00,WUHU21623XXSP,2013-02-17 22:36:00,
2013-02-17 17:38:00,10.2,2.6,29.89,NNW,337,5.6,8.1,71,0.00,,,0.00,WUHU21623XXSP,2013-02-17 22:38:00,
2013-02-17 17:40:00,10.2,2.6,29.89,NW,315,9.2,9.2,71,0.00,,,0.00,WUHU21623XXSP,2013-02-17 22:40:00,
2013-02-17 17:43:00,10.0,2.4,29.89,NW,315,6.9,9.2,71,0.00,,,0.00,WUHU21623XXSP,2013-02-17 22:43:00,
2013-02-17 17:45:00,10.0,2.4,29.89,West,270,5.1,9.2,71,0.00,,,0.00,WUHU21623XXSP,2013-02-17 22:45:00,
2013-02-17 17:47:00,10.0,2.4,29.89,WNW,292,7.6,9.2,71,0.00,,,0.00,WUHU21623XXSP,2013-02-17 22:47:00,
2013-02-17 17:49:00,10.0,2.4,29.89,WNW,292,7.6,9.2,71,0.00,,,0.00,WUHU21623XXSP,2013-02-17 22:49:00,
2013-02-17 17:51:00,10.0,2.4,29.89,WNW,292,7.6,7.6,71,0.00,,,0.00,WUHU21623XXSP,2013-02-17 22:51:00,
2013-02-17 17:53:00,10.0,2.7,29.89,NW,315,8.3,8.3,72,0.00,,,0.00,WUHU21623XXSP,2013-02-17 22:53:00,
2013-02-17 17:55:00,9.9,2.6,29.89,NW,315,7.8,8.3,72,0.00,,,0.00,WUHU21623XXSP,2013-02-17 22:55:00,
2013-02-17 17:57:00,9.7,2.4,29.89,NNW,337,7.4,8.3,72,0.00,,,0.00,WUHU21623XXSP,2013-02-17 22:57:00,
2013-02-17 18:00:00,9.7,2.4,29.89,NNW,337,7.6,8.3,72,0.00,,,0.00,WUHU21623XXSP,2013-02-17 23:00:00,
2013-02-17 18:02:00,9.7,2.4,29.90,NNW,337,6.9,8.3,72,0.00,,,0.00,WUHU21623XXSP,2013-02-17 23:02:00,
2013-02-17 18:04:00,9.5,2.5,29.89,NNW,337,4.5,7.8,73,0.00,,,0.00,WUHU21623XXSP,2013-02-17 23:04:00,
2013-02-17 18:06:00,9.5,2.5,29.90,NW,315,4.3,7.6,73,0.00,,,0.00,WUHU21623XXSP,2013-02-17 23:06:00,
2013-02-17 18:08:00,9.5,2.5,29.90,NNW,337,4.5,7.6,73,0.00,,,0.00,WUHU21623XXSP,2013-02-17 23:08:00,
2013-02-17 18:10:00,9.3,2.4,29.90,NNW,337,0.0,6.9,73,0.00,,,0.00,WUHU21623XXSP,2013-02-17 23:10:00,
2013-02-17 18:12:00,9.3,2.7,29.90,WNW,292,5.8,5.8,74,0.00,,,0.00,WUHU21623XXSP,2013-02-17 23:12:00,
2013-02-17 18:15:00,9.3,2.7,29.90,NW,315,5.4,5.8,74,0.00,,,0.00,WUHU21623XXSP,2013-02-17 23:15:00,
2013-02-17 18:17:00,9.3,2.7,29.90,NNW,337,7.8,7.8,74,0.00,,,0.00,WUHU21623XXSP,2013-02-17 23:17:00,
2013-02-17 18:19:00,9.1,2.5,29.90,NNW,337,6.0,7.8,74,0.00,,,0.00,WUHU21623XXSP,2013-02-17 23:19:00,
2013-02-17 18:21:00,9.3,2.7,29.90,WNW,292,6.0,7.8,74,0.00,,,0.00,WUHU21623XXSP,2013-02-17 23:21:00,
2013-02-17 18:23:00,9.1,2.5,29.90,NNW,337,4.3,7.8,74,0.00,,,0.00,WUHU21623XXSP,2013-02-17 23:23:00,
2013-02-17 18:25:00,9.1,2.8,29.90,WNW,292,5.6,7.8,75,0.00,,,0.00,WUHU21623XXSP,2013-02-17 23:25:00,
2013-02-17 18:27:00,9.1,2.8,29.90,NW,315,8.1,8.1,75,0.00,,,0.00,WUHU21623XXSP,2013-02-17 23:27:00,
2013-02-17 18:30:00,9.1,2.8,29.90,NNW,337,3.6,8.1,75,0.00,,,0.00,WUHU21623XXSP,2013-02-17 23:30:00,
2013-02-17 18:32:00,9.1,3.1,29.90,WNW,292,6.9,8.1,76,0.00,,,0.00,WUHU21623XXSP,2013-02-17 23:32:00,
2013-02-17 18:34:00,9.1,3.1,29.90,WNW,292,2.9,8.1,76,0.00,,,0.00,WUHU21623XXSP,2013-02-17 23:34:00,
2013-02-17 18:36:00,9.1,3.1,29.90,NNW,337,2.2,8.1,76,0.00,,,0.00,WUHU21623XXSP,2013-02-17 23:36:00,
2013-02-17 18:38:00,9.1,3.1,29.90,NW,315,6.7,6.9,76,0.00,,,0.00,WUHU21623XXSP,2013-02-17 23:38:00,
2013-02-17 18:40:00,9.1,3.1,29.91,NW,315,3.8,6.9,76,0.00,,,0.00,WUHU21623XXSP,2013-02-17 23:40:00,
2013-02-17 18:43:00,9.1,3.1,29.91,NW,315,5.6,6.7,76,0.00,,,0.00,WUHU21623XXSP,2013-02-17 23:43:00,
2013-02-17 18:45:00,9.1,3.4,29.91,NW,315,4.9,6.7,77,0.00,,,0.00,WUHU21623XXSP,2013-02-17 23:45:00,
2013-02-17 18:47:00,9.1,3.4,29.91,NW,315,2.5,6.7,77,0.00,,,0.00,WUHU21623XXSP,2013-02-17 23:47:00,
2013-02-17 18:49:00,9.1,3.4,29.91,WNW,292,2.0,5.6,77,0.00,,,0.00,WUHU21623XXSP,2013-02-17 23:49:00,
2013-02-17 18:51:00,9.0,3.2,29.91,WNW,292,1.6,5.6,77,0.00,,,0.00,WUHU21623XXSP,2013-02-17 23:51:00,
2013-02-17 18:53:00,8.8,3.0,29.91,NW,315,4.7,4.9,77,0.00,,,0.00,WUHU21623XXSP,2013-02-17 23:53:00,
2013-02-17 18:55:00,9.0,3.5,29.91,NW,315,3.1,4.7,78,0.00,,,0.00,WUHU21623XXSP,2013-02-17 23:55:00,
2013-02-17 18:57:00,8.8,3.3,29.91,NW,315,8.1,8.1,78,0.00,,,0.00,WUHU21623XXSP,2013-02-17 23:57:00,
2013-02-17 19:00:00,8.8,3.3,29.91,NW,315,2.7,8.1,78,0.00,,,0.00,WUHU21623XXSP,2013-02-18 00:00:00,
2013-02-17 19:02:00,9.0,3.8,29.91,WNW,292,4.3,8.1,79,0.00,,,0.00,WUHU21623XXSP,2013-02-18 00:02:00,
2013-02-17 19:04:00,9.0,3.8,29.91,NW,315,3.8,8.1,79,0.00,,,0.00,WUHU21623XXSP,2013-02-18 00:04:00,
2013-02-17 19:06:00,9.0,3.8,29.91,WNW,292,5.1,8.1,79,0.00,,,0.00,WUHU21623XXSP,2013-02-18 00:06:00,
2013-02-17 19:08:00,9.0,3.8,29.92,WNW,292,2.7,5.1,79,0.00,,,0.00,WUHU21623XXSP,2013-02-18 00:08:00,
2013-02-17 19:10:00,9.0,3.8,29.92,West,270,3.6,5.1,79,0.00,,,0.00,WUHU21623XXSP,2013-02-18 00:10:00,
2013-02-17 19:12:00,8.8,3.6,29.92,WNW,292,5.1,5.1,79,0.00,,,0.00,WUHU21623XXSP,2013-02-18 00:12:00,
2013-02-17 19:15:00,8.8,3.6,29.92,WNW,292,3.6,5.1,79,0.00,,,0.00,WUHU21623XXSP,2013-02-18 00:15:00,
2013-02-17 19:17:00,8.8,3.9,29.92,NW,315,5.1,5.1,80,0.00,,,0.00,WUHU21623XXSP,2013-02-18 00:17:00,
2013-02-17 19:19:00,8.8,3.9,29.92,NW,315,5.1,5.1,80,0.00,,,0.00,WUHU21623XXSP,2013-02-18 00:19:00,
2013-02-17 19:21:00,8.8,3.9,29.92,WNW,292,3.8,5.1,80,0.00,,,0.00,WUHU21623XXSP,2013-02-18 00:21:00,
2013-02-17 19:23:00,9.0,4.1,29.92,WNW,292,5.8,5.8,80,0.00,,,0.00,WUHU21623XXSP,2013-02-18 00:23:00,
2013-02-17 19:25:00,8.8,3.9,29.92,WNW,292,8.5,8.5,80,0.00,,,0.00,WUHU21623XXSP,2013-02-18 00:25:00,
2013-02-17 19:27:00,9.0,4.3,29.92,NW,315,8.1,8.5,81,0.00,,,0.00,WUHU21623XXSP,2013-02-18 00:27:00,
2013-02-17 19:30:00,9.0,4.3,29.92,NW,315,8.1,8.5,81,0.00,,,0.00,WUHU21623XXSP,2013-02-18 00:30:00,
2013-02-17 19:32:00,9.0,4.1,29.92,NW,315,6.3,8.5,80,0.00,,,0.00,WUHU21623XXSP,2013-02-18 00:32:00,
2013-02-17 19:34:00,9.0,4.1,29.92,NW,315,6.7,8.5,80,0.00,,,0.00,WUHU21623XXSP,2013-02-18 00:34:00,
2013-02-17 19:36:00,9.0,4.1,29.92,West,270,3.8,8.1,80,0.00,,,0.00,WUHU21623XXSP,2013-02-18 00:36:00,
2013-02-17 19:38:00,9.0,4.3,29.92,WSW,247,4.0,8.1,81,0.00,,,0.00,WUHU21623XXSP,2013-02-18 00:38:00,
2013-02-17 19:40:00,9.0,4.3,29.92,NW,315,5.8,6.7,81,0.00,,,0.00,WUHU21623XXSP,2013-02-18 00:40:00,
2013-02-17 19:42:00,9.0,4.3,29.92,NW,315,3.6,6.7,81,0.00,,,0.00,WUHU21623XXSP,2013-02-18 00:42:00,
2013-02-17 19:45:00,9.0,4.3,29.93,NW,315,7.8,7.8,81,0.00,,,0.00,WUHU21623XXSP,2013-02-18 00:45:00,
2013-02-17 19:47:00,9.1,4.5,29.93,WNW,292,3.4,7.8,81,0.00,,,0.00,WUHU21623XXSP,2013-02-18 00:47:00,
2013-02-17 19:49:00,9.1,4.5,29.92,NNW,337,9.4,9.4,81,0.00,,,0.00,WUHU21623XXSP,2013-02-18 00:49:00,
2013-02-17 19:51:00,9.1,4.5,29.93,NW,315,6.7,9.4,81,0.00,,,0.00,WUHU21623XXSP,2013-02-18 00:51:00,
2013-02-17 19:53:00,9.1,4.5,29.93,West,270,4.5,9.4,81,0.00,,,0.00,WUHU21623XXSP,2013-02-18 00:53:00,
2013-02-17 19:55:00,9.1,4.5,29.93,West,270,4.5,9.4,81,0.00,,,0.00,WUHU21623XXSP,2013-02-18 00:55:00,
2013-02-17 19:57:00,9.1,4.5,29.93,West,270,4.3,9.4,81,0.00,,,0.00,WUHU21623XXSP,2013-02-18 00:57:00,
2013-02-17 19:59:00,9.3,4.6,29.93,WNW,292,7.4,7.4,81,0.00,,,0.00,WUHU21623XXSP,2013-02-18 00:59:00,
2013-02-17 20:02:00,9.3,4.6,29.93,NW,315,8.7,8.7,81,0.00,,,0.00,WUHU21623XXSP,2013-02-18 01:02:00,
2013-02-17 20:04:00,9.5,4.8,29.93,WNW,292,6.9,8.7,81,0.00,,,0.00,WUHU21623XXSP,2013-02-18 01:04:00,
2013-02-17 20:06:00,9.5,4.8,29.93,WNW,292,2.7,8.7,81,0.00,,,0.00,WUHU21623XXSP,2013-02-18 01:06:00,
2013-02-17 20:08:00,9.5,4.8,29.93,NW,315,7.6,8.7,81,0.00,,,0.00,WUHU21623XXSP,2013-02-18 01:08:00,
2013-02-17 20:10:00,9.7,5.0,29.93,West,270,3.8,8.7,81,0.00,,,0.00,WUHU21623XXSP,2013-02-18 01:10:00,
2013-02-17 20:12:00,9.5,4.8,29.93,NW,315,6.9,7.6,81,0.00,,,0.00,WUHU21623XXSP,2013-02-18 01:12:00,
2013-02-17 20:14:00,9.5,4.8,29.93,NW,315,4.3,7.6,81,0.00,,,0.00,WUHU21623XXSP,2013-02-18 01:14:00,
2013-02-17 20:17:00,9.3,4.6,29.93,NNW,337,5.8,7.6,81,0.00,,,0.00,WUHU21623XXSP,2013-02-18 01:17:00,
2013-02-17 20:19:00,9.3,4.6,29.94,NNW,337,5.4,6.9,81,0.00,,,0.00,WUHU21623XXSP,2013-02-18 01:19:00,
2013-02-17 20:21:00,9.3,4.6,29.94,NW,315,5.8,6.9,81,0.00,,,0.00,WUHU21623XXSP,2013-02-18 01:21:00,
2013-02-17 20:23:00,9.5,4.8,29.94,NW,315,4.3,5.8,81,0.00,,,0.00,WUHU21623XXSP,2013-02-18 01:23:00,
2013-02-17 20:25:00,9.5,4.8,29.93,WNW,292,2.5,5.8,81,0.00,,,0.00,WUHU21623XXSP,2013-02-18 01:25:00,
2013-02-17 20:27:00,9.3,4.6,29.93,NW,315,0.0,5.8,81,0.00,,,0.00,WUHU21623XXSP,2013-02-18 01:27:00,
2013-02-17 20:30:00,9.3,4.6,29.93,NW,315,6.9,6.9,81,0.00,,,0.00,WUHU21623XXSP,2013-02-18 01:30:00,
2013-02-17 20:32:00,9.1,4.5,29.93,NNW,337,4.7,6.9,81,0.00,,,0.00,WUHU21623XXSP,2013-02-18 01:32:00,
2013-02-17 20:34:00,9.1,4.5,29.94,NNW,337,7.8,7.8,81,0.00,,,0.00,WUHU21623XXSP,2013-02-18 01:34:00,
2013-02-17 20:36:00,9.1,4.5,29.94,NNW,337,2.9,7.8,81,0.00,,,0.00,WUHU21623XXSP,2013-02-18 01:36:00,
2013-02-17 20:38:00,9.1,4.5,29.94,NNW,337,2.9,7.8,81,0.00,,,0.00,WUHU21623XXSP,2013-02-18 01:38:00,
2013-02-17 20:40:00,9.0,4.3,29.94,WNW,292,1.1,7.8,81,0.00,,,0.00,WUHU21623XXSP,2013-02-18 01:40:00,
2013-02-17 20:42:00,9.0,4.3,29.94,NW,315,4.0,7.8,81,0.00,,,0.00,WUHU21623XXSP,2013-02-18 01:42:00,
2013-02-17 20:44:00,8.8,4.2,29.94,NW,315,6.9,6.9,81,0.00,,,0.00,WUHU21623XXSP,2013-02-18 01:44:00,
2013-02-17 20:47:00,8.8,4.2,29.94,NW,315,5.6,6.9,81,0.00,,,0.00,WUHU21623XXSP,2013-02-18 01:47:00,
2013-02-17 20:49:00,8.8,4.2,29.94,WNW,292,6.3,6.9,81,0.00,,,0.00,WUHU21623XXSP,2013-02-18 01:49:00,
2013-02-17 20:51:00,8.8,4.2,29.94,NNW,337,5.1,6.9,81,0.00,,,0.00,WUHU21623XXSP,2013-02-18 01:51:00,
2013-02-17 20:53:00,8.8,4.2,29.94,NNW,337,4.9,6.9,81,0.00,,,0.00,WUHU21623XXSP,2013-02-18 01:53:00,
2013-02-17 20:55:00,8.8,4.2,29.94,NNW,337,4.0,6.3,81,0.00,,,0.00,WUHU21623XXSP,2013-02-18 01:55:00,
2013-02-17 20:57:00,8.4,3.8,29.94,NNW,337,2.9,6.3,81,0.00,,,0.00,WUHU21623XXSP,2013-02-18 01:57:00,
2013-02-17 21:00:00,8.4,3.8,29.95,NNW,337,6.9,6.9,81,0.00,,,0.00,WUHU21623XXSP,2013-02-18 02:00:00,
2013-02-17 21:02:00,8.6,4.0,29.95,NNW,337,3.1,6.9,81,0.00,,,0.00,WUHU21623XXSP,2013-02-18 02:02:00,
2013-02-17 21:04:00,8.6,4.0,29.95,NNW,337,4.3,6.9,81,0.00,,,0.00,WUHU21623XXSP,2013-02-18 02:04:00,
2013-02-17 21:06:00,8.6,4.0,29.95,NW,315,7.4,7.4,81,0.00,,,0.00,WUHU21623XXSP,2013-02-18 02:06:00,
2013-02-17 21:08:00,8.8,4.2,29.95,NNW,337,2.7,7.4,81,0.00,,,0.00,WUHU21623XXSP,2013-02-18 02:08:00,
2013-02-17 21:10:00,8.4,3.8,29.95,North,0,5.6,7.4,81,0.00,,,0.00,WUHU21623XXSP,2013-02-18 02:10:00,
2013-02-17 21:12:00,8.4,3.6,29.95,NNW,337,6.0,7.4,80,0.00,,,0.00,WUHU21623XXSP,2013-02-18 02:12:00,
2013-02-17 21:14:00,8.4,3.6,29.95,NNW,337,5.6,7.4,80,0.00,,,0.00,WUHU21623XXSP,2013-02-18 02:14:00,
2013-02-17 21:17:00,8.2,3.4,29.95,NNW,337,6.0,6.0,80,0.00,,,0.00,WUHU21623XXSP,2013-02-18 02:17:00,
2013-02-17 21:19:00,8.2,3.4,29.95,NNW,337,2.7,6.0,80,0.00,,,0.00,WUHU21623XXSP,2013-02-18 02:19:00,
2013-02-17 21:21:00,8.2,3.4,29.95,NNW,337,6.5,6.5,80,0.00,,,0.00,WUHU21623XXSP,2013-02-18 02:21:00,
2013-02-17 21:23:00,8.1,3.2,29.95,NNW,337,5.4,6.5,80,0.00,,,0.00,WUHU21623XXSP,2013-02-18 02:23:00,
2013-02-17 21:25:00,8.1,3.2,29.95,NNW,337,6.7,6.7,80,0.00,,,0.00,WUHU21623XXSP,2013-02-18 02:25:00,
2013-02-17 21:27:00,8.1,2.9,29.95,NNW,337,2.2,6.7,79,0.00,,,0.00,WUHU21623XXSP,2013-02-18 02:27:00,
2013-02-17 21:29:00,7.9,2.7,29.95,NNW,337,4.0,6.7,79,0.00,,,0.00,WUHU21623XXSP,2013-02-18 02:29:00,
2013-02-17 21:32:00,7.9,2.7,29.95,NNW,337,2.7,6.7,79,0.00,,,0.00,WUHU21623XXSP,2013-02-18 02:32:00,
2013-02-17 21:34:00,7.7,2.6,29.95,North,0,4.0,6.7,79,0.00,,,0.00,WUHU21623XXSP,2013-02-18 02:34:00,
2013-02-17 21:36:00,7.5,2.4,29.95,NNW,337,6.0,6.0,79,0.00,,,0.00,WUHU21623XXSP,2013-02-18 02:36:00,
2013-02-17 21:38:00,7.5,2.1,29.95,NNW,337,6.7,6.7,78,0.00,,,0.00,WUHU21623XXSP,2013-02-18 02:38:00,
2013-02-17 21:40:00,7.7,2.3,29.95,NW,315,7.2,7.2,78,0.00,,,0.00,WUHU21623XXSP,2013-02-18 02:40:00,
2013-02-17 21:42:00,7.9,2.2,29.95,NW,315,7.2,7.2,77,0.00,,,0.00,WUHU21623XXSP,2013-02-18 02:42:00,
2013-02-17 21:44:00,8.1,2.0,29.95,NNW,337,7.2,7.2,76,0.00,,,0.00,WUHU21623XXSP,2013-02-18 02:44:00,
2013-02-17 21:46:00,8.1,2.0,29.95,NNW,337,7.2,7.2,76,0.00,,,0.00,WUHU21623XXSP,2013-02-18 02:46:00,
2013-02-17 21:49:00,8.1,2.0,29.96,North,0,3.4,7.2,76,0.00,,,0.00,WUHU21623XXSP,2013-02-18 02:49:00,
2013-02-17 21:51:00,7.9,1.6,29.96,NNW,337,4.9,7.2,75,0.00,,,0.00,WUHU21623XXSP,2013-02-18 02:51:00,
2013-02-17 21:53:00,7.9,1.6,29.96,NNW,337,8.3,8.3,75,0.00,,,0.00,WUHU21623XXSP,2013-02-18 02:53:00,
2013-02-17 21:55:00,8.1,1.8,29.95,NNW,337,4.9,8.3,75,0.00,,,0.00,WUHU21623XXSP,2013-02-18 02:55:00,
2013-02-17 21:57:00,8.2,1.9,29.96,NNW,337,7.2,8.3,75,0.00,,,0.00,WUHU21623XXSP,2013-02-18 02:57:00,
2013-02-17 21:59:00,8.4,1.8,29.96,NW,315,4.5,8.3,74,0.00,,,0.00,WUHU21623XXSP,2013-02-18 02:59:00,
2013-02-17 22:01:00,8.4,1.5,29.96,NNW,337,13.6,13.6,73,0.00,,,0.00,WUHU21623XXSP,2013-02-18 03:01:00,
2013-02-17 22:04:00,8.6,1.7,29.96,NNW,337,8.9,13.6,73,0.00,,,0.00,WUHU21623XXSP,2013-02-18 03:04:00,
2013-02-17 22:06:00,8.6,1.7,29.96,NW,315,7.2,13.6,73,0.00,,,0.00,WUHU21623XXSP,2013-02-18 03:06:00,
2013-02-17 22:08:00,8.8,1.6,29.96,NNW,337,7.8,13.6,72,0.00,,,0.00,WUHU21623XXSP,2013-02-18 03:08:00,
2013-02-17 22:10:00,8.8,1.6,29.96,North,0,9.6,13.6,72,0.00,,,0.00,WUHU21623XXSP,2013-02-18 03:10:00,
2013-02-17 22:12:00,8.8,1.6,29.96,NNW,337,6.9,9.6,72,0.00,,,0.00,WUHU21623XXSP,2013-02-18 03:12:00,
2013-02-17 22:14:00,8.8,1.6,29.96,NNW,337,5.4,9.6,72,0.00,,,0.00,WUHU21623XXSP,2013-02-18 03:14:00,
2013-02-17 22:17:00,8.8,1.3,29.96,NNW,337,15.9,15.9,71,0.00,,,0.00,WUHU21623XXSP,2013-02-18 03:17:00,
2013-02-17 22:19:00,9.0,1.5,29.96,NW,315,6.5,15.9,71,0.00,,,0.00,WUHU21623XXSP,2013-02-18 03:19:00,
2013-02-17 22:21:00,9.0,1.5,29.96,NNW,337,5.6,15.9,71,0.00,,,0.00,WUHU21623XXSP,2013-02-18 03:21:00,
2013-02-17 22:23:00,9.1,1.6,29.97,NNW,337,9.4,15.9,71,0.00,,,0.00,WUHU21623XXSP,2013-02-18 03:23:00,
2013-02-17 22:25:00,9.1,1.3,29.97,North,0,8.7,15.9,70,0.00,,,0.00,WUHU21623XXSP,2013-02-18 03:25:00,
2013-02-17 22:27:00,9.1,1.3,29.97,NNW,337,6.9,9.4,70,0.00,,,0.00,WUHU21623XXSP,2013-02-18 03:27:00,
2013-02-17 22:29:00,9.1,1.3,29.97,NNW,337,7.8,9.4,70,0.00,,,0.00,WUHU21623XXSP,2013-02-18 03:29:00,
2013-02-17 22:31:00,9.1,1.0,29.97,NNW,337,7.6,9.4,69,0.00,,,0.00,WUHU21623XXSP,2013-02-18 03:31:00,
2013-02-17 22:34:00,9.1,1.0,29.97,NNW,337,9.4,9.4,69,0.00,,,0.00,WUHU21623XXSP,2013-02-18 03:34:00,
2013-02-17 22:36:00,9.1,1.0,29.98,North,0,7.4,9.4,69,0.00,,,0.00,WUHU21623XXSP,2013-02-18 03:36:00,
2013-02-17 22:38:00,9.1,1.0,29.98,NNW,337,8.3,9.4,69,0.00,,,0.00,WUHU21623XXSP,2013-02-18 03:38:00,
2013-02-17 22:40:00,9.1,1.0,29.98,NNW,337,5.4,9.4,69,0.00,,,0.00,WUHU21623XXSP,2013-02-18 03:40:00,
2013-02-17 22:42:00,9.1,1.0,29.98,NNW,337,8.1,9.4,69,0.00,,,0.00,WUHU21623XXSP,2013-02-18 03:42:00,
2013-02-17 22:44:00,9.1,0.7,29.98,NNW,337,7.6,8.3,68,0.00,,,0.00,WUHU21623XXSP,2013-02-18 03:44:00,
2013-02-17 22:46:00,9.1,0.7,29.98,NNW,337,8.5,8.5,68,0.00,,,0.00,WUHU21623XXSP,2013-02-18 03:46:00,
2013-02-17 22:49:00,9.1,0.3,29.98,NNW,337,3.4,8.5,67,0.00,,,0.00,WUHU21623XXSP,2013-02-18 03:49:00,
2013-02-17 22:51:00,9.1,0.3,29.97,NNW,337,6.5,8.5,67,0.00,,,0.00,WUHU21623XXSP,2013-02-18 03:51:00,
2013-02-17 22:53:00,9.1,0.3,29.99,NNW,337,5.8,8.5,67,0.00,,,0.00,WUHU21623XXSP,2013-02-18 03:53:00,
2013-02-17 22:55:00,9.1,0.3,29.99,NNW,337,6.7,8.5,67,0.00,,,0.00,WUHU21623XXSP,2013-02-18 03:55:00,
2013-02-17 22:57:00,9.1,0.3,29.99,NNE,22,7.4,7.4,67,0.00,,,0.00,WUHU21623XXSP,2013-02-18 03:57:00,
2013-02-17 22:59:00,9.1,0.3,29.98,North,0,6.0,7.4,67,0.00,,,0.00,WUHU21623XXSP,2013-02-18 03:59:00,
2013-02-17 23:01:00,9.1,0.3,29.98,NNW,337,5.1,7.4,67,0.00,,,0.00,WUHU21623XXSP,2013-02-18 04:01:00,
2013-02-17 23:03:00,9.1,0.3,29.98,NNW,337,5.1,7.4,67,0.00,,,0.00,WUHU21623XXSP,2013-02-18 04:03:00,
2013-02-17 23:06:00,9.1,0.0,29.98,NW,315,7.2,7.4,66,0.00,,,0.00,WUHU21623XXSP,2013-02-18 04:06:00,
2013-02-17 23:08:00,9.1,0.0,29.99,NW,315,6.0,7.2,66,0.00,,,0.00,WUHU21623XXSP,2013-02-18 04:08:00,
2013-02-17 23:10:00,9.1,0.0,29.98,NW,315,6.0,7.2,66,0.00,,,0.00,WUHU21623XXSP,2013-02-18 04:10:00,
2013-02-17 23:12:00,9.1,0.0,29.98,NNW,337,8.7,8.7,66,0.00,,,0.00,WUHU21623XXSP,2013-02-18 04:12:00,
2013-02-17 23:14:00,9.1,0.0,29.99,NNW,337,8.7,8.7,66,0.00,,,0.00,WUHU21623XXSP,2013-02-18 04:14:00,
2013-02-17 23:16:00,9.1,0.0,29.99,NNW,337,8.7,8.7,66,0.00,,,0.00,WUHU21623XXSP,2013-02-18 04:16:00,
2013-02-17 23:19:00,9.1,0.0,29.99,NNW,337,5.8,8.7,66,0.00,,,0.00,WUHU21623XXSP,2013-02-18 04:19:00,
2013-02-17 23:21:00,9.1,0.0,29.99,North,0,4.9,8.7,66,0.00,,,0.00,WUHU21623XXSP,2013-02-18 04:21:00,
2013-02-17 23:23:00,9.1,0.0,29.99,North,0,9.8,9.8,66,0.00,,,0.00,WUHU21623XXSP,2013-02-18 04:23:00,
2013-02-17 23:27:00,9.1,0.0,29.99,NNW,337,3.8,9.8,66,0.00,,,0.00,WUHU21623XXSP,2013-02-18 04:27:00,
2013-02-17 23:29:00,9.1,0.0,30.00,NNW,337,8.7,9.8,66,0.00,,,0.00,WUHU21623XXSP,2013-02-18 04:29:00,
2013-02-17 23:31:00,9.0,-0.5,30.00,NW,315,11.0,11.0,65,0.00,,,0.00,WUHU21623XXSP,2013-02-18 04:31:00,
2013-02-17 23:34:00,9.0,-0.5,30.00,NW,315,13.0,13.0,65,0.00,,,0.00,WUHU21623XXSP,2013-02-18 04:34:00,
2013-02-17 23:36:00,9.0,-0.5,30.00,NW,315,13.0,13.0,65,0.00,,,0.00,WUHU21623XXSP,2013-02-18 04:36:00,
2013-02-17 23:38:00,9.0,-0.5,30.00,NW,315,13.0,13.0,65,0.00,,,0.00,WUHU21623XXSP,2013-02-18 04:38:00,
2013-02-17 23:40:00,9.0,-0.5,30.00,NW,315,13.0,13.0,65,0.00,,,0.00,WUHU21623XXSP,2013-02-18 04:40:00,
2013-02-17 23:42:00,9.0,-0.5,30.00,NW,315,13.0,13.0,65,0.00,,,0.00,WUHU21623XXSP,2013-02-18 04:42:00,
2013-02-17 23:44:00,9.0,-0.5,30.00,NW,315,13.0,13.0,65,0.00,,,0.00,WUHU21623XXSP,2013-02-18 04:44:00,
2013-02-17 23:46:00,9.0,-0.5,30.00,NW,315,13.0,13.0,65,0.00,,,0.00,WUHU21623XXSP,2013-02-18 04:46:00,
2013-02-17 23:48:00,9.0,-0.5,30.01,NNW,337,11.0,13.0,65,0.00,,,0.00,WUHU21623XXSP,2013-02-18 04:48:00,
2013-02-17 23:51:00,8.8,-0.7,30.00,North,0,9.8,13.0,65,0.00,,,0.00,WUHU21623XXSP,2013-02-18 04:51:00,
2013-02-17 23:53:00,8.8,-0.7,30.01,North,0,9.8,13.0,65,0.00,,,0.00,WUHU21623XXSP,2013-02-18 04:53:00,
2013-02-17 23:55:00,8.6,-0.9,30.01,North,0,8.9,13.0,65,0.00,,,0.00,WUHU21623XXSP,2013-02-18 04:55:00,
2013-02-17 23:57:00,8.6,-0.5,30.01,NW,315,6.7,11.0,66,0.00,,,0.00,WUHU21623XXSP,2013-02-18 04:57:00,
2013-02-17 23:59:00,8.6,-0.5,30.01,NNW,337,10.1,10.1,66,0.00,,,0.00,WUHU21623XXSP,2013-02-18 04:59:00,